<?xml version="1.0" encoding="UTF-8" standalone="no" ?>
<gpx xmlns="http://www.topografix.com/GPX/1/1" xmlns:xsi="http://www.w3.org/2001/XMLSchema-instance" xsi:schemaLocation="http://www.topografix.com/GPX/1/1 http://www.topografix.com/GPX/1/1/gpx.xsd" version="1.1" creator="VisuGPX - https://www.visugpx.com">
  <metadata>
    <name>Mont Granier</name>
    <desc><![CDATA[Mont Granier depuis la Plagne, avec boucle en haut.]]></desc>
  </metadata>
  <trk>
    <name><![CDATA[21 août 2017 à 07:55:01]]></name>
    <cmt><![CDATA[21 août 2017 à 07:55:01]]></cmt>
    <trkseg>
      <trkpt lat="45.44149" lon="5.90582">
        <ele>1104</ele>
        <time>2017-08-21T05:55:02Z</time>
      </trkpt>
      <trkpt lat="45.44142" lon="5.90578">
        <ele>1105</ele>
        <time>2017-08-21T05:55:13Z</time>
      </trkpt>
      <trkpt lat="45.44133" lon="5.90582">
        <ele>1106</ele>
        <time>2017-08-21T05:55:23Z</time>
      </trkpt>
      <trkpt lat="45.44134" lon="5.90581">
        <ele>1107</ele>
        <time>2017-08-21T05:55:46Z</time>
      </trkpt>
      <trkpt lat="45.44138" lon="5.90576">
        <ele>1107</ele>
        <time>2017-08-21T05:55:50Z</time>
      </trkpt>
      <trkpt lat="45.44143" lon="5.90572">
        <ele>1106</ele>
        <time>2017-08-21T05:55:54Z</time>
      </trkpt>
      <trkpt lat="45.44149" lon="5.9057">
        <ele>1105</ele>
        <time>2017-08-21T05:56:00Z</time>
      </trkpt>
      <trkpt lat="45.44153" lon="5.90566">
        <ele>1104</ele>
        <time>2017-08-21T05:56:05Z</time>
      </trkpt>
      <trkpt lat="45.44158" lon="5.90565">
        <ele>1104</ele>
        <time>2017-08-21T05:56:12Z</time>
      </trkpt>
      <trkpt lat="45.44173" lon="5.90559">
        <ele>1104</ele>
        <time>2017-08-21T05:56:22Z</time>
      </trkpt>
      <trkpt lat="45.44178" lon="5.90558">
        <ele>1104</ele>
        <time>2017-08-21T05:56:26Z</time>
      </trkpt>
      <trkpt lat="45.44188" lon="5.90561">
        <ele>1104</ele>
        <time>2017-08-21T05:56:36Z</time>
      </trkpt>
      <trkpt lat="45.44238" lon="5.90571">
        <ele>1097</ele>
        <time>2017-08-21T05:57:08Z</time>
      </trkpt>
      <trkpt lat="45.44243" lon="5.90574">
        <ele>1096</ele>
        <time>2017-08-21T05:57:12Z</time>
      </trkpt>
      <trkpt lat="45.44245" lon="5.90579">
        <ele>1095</ele>
        <time>2017-08-21T05:57:17Z</time>
      </trkpt>
      <trkpt lat="45.44248" lon="5.90585">
        <ele>1095</ele>
        <time>2017-08-21T05:57:22Z</time>
      </trkpt>
      <trkpt lat="45.44258" lon="5.90593">
        <ele>1095</ele>
        <time>2017-08-21T05:57:30Z</time>
      </trkpt>
      <trkpt lat="45.44298" lon="5.9062">
        <ele>1097</ele>
        <time>2017-08-21T05:58:02Z</time>
      </trkpt>
      <trkpt lat="45.44337" lon="5.90649">
        <ele>1100</ele>
        <time>2017-08-21T05:58:33Z</time>
      </trkpt>
      <trkpt lat="45.44351" lon="5.90656">
        <ele>1102</ele>
        <time>2017-08-21T05:58:41Z</time>
      </trkpt>
      <trkpt lat="45.44355" lon="5.90661">
        <ele>1102</ele>
        <time>2017-08-21T05:58:48Z</time>
      </trkpt>
      <trkpt lat="45.44363" lon="5.90665">
        <ele>1103</ele>
        <time>2017-08-21T05:58:55Z</time>
      </trkpt>
      <trkpt lat="45.44367" lon="5.90671">
        <ele>1104</ele>
        <time>2017-08-21T05:58:59Z</time>
      </trkpt>
      <trkpt lat="45.44373" lon="5.90683">
        <ele>1105</ele>
        <time>2017-08-21T05:59:07Z</time>
      </trkpt>
      <trkpt lat="45.44377" lon="5.90687">
        <ele>1105</ele>
        <time>2017-08-21T05:59:13Z</time>
      </trkpt>
      <trkpt lat="45.44388" lon="5.90688">
        <ele>1106</ele>
        <time>2017-08-21T05:59:21Z</time>
      </trkpt>
      <trkpt lat="45.44395" lon="5.90697">
        <ele>1106</ele>
        <time>2017-08-21T05:59:30Z</time>
      </trkpt>
      <trkpt lat="45.44407" lon="5.90701">
        <ele>1107</ele>
        <time>2017-08-21T05:59:37Z</time>
      </trkpt>
      <trkpt lat="45.44412" lon="5.90704">
        <ele>1106</ele>
        <time>2017-08-21T05:59:40Z</time>
      </trkpt>
      <trkpt lat="45.44416" lon="5.90708">
        <ele>1106</ele>
        <time>2017-08-21T05:59:43Z</time>
      </trkpt>
      <trkpt lat="45.44419" lon="5.90715">
        <ele>1105</ele>
        <time>2017-08-21T05:59:47Z</time>
      </trkpt>
      <trkpt lat="45.44419" lon="5.90722">
        <ele>1106</ele>
        <time>2017-08-21T05:59:51Z</time>
      </trkpt>
      <trkpt lat="45.44418" lon="5.90729">
        <ele>1106</ele>
        <time>2017-08-21T05:59:55Z</time>
      </trkpt>
      <trkpt lat="45.44418" lon="5.90737">
        <ele>1106</ele>
        <time>2017-08-21T05:59:59Z</time>
      </trkpt>
      <trkpt lat="45.4442" lon="5.90743">
        <ele>1107</ele>
        <time>2017-08-21T06:00:03Z</time>
      </trkpt>
      <trkpt lat="45.4442" lon="5.9075">
        <ele>1107</ele>
        <time>2017-08-21T06:00:08Z</time>
      </trkpt>
      <trkpt lat="45.44419" lon="5.90772">
        <ele>1110</ele>
        <time>2017-08-21T06:00:22Z</time>
      </trkpt>
      <trkpt lat="45.44421" lon="5.90778">
        <ele>1111</ele>
        <time>2017-08-21T06:00:28Z</time>
      </trkpt>
      <trkpt lat="45.44426" lon="5.90776">
        <ele>1111</ele>
        <time>2017-08-21T06:00:34Z</time>
      </trkpt>
      <trkpt lat="45.4444" lon="5.90767">
        <ele>1113</ele>
        <time>2017-08-21T06:00:50Z</time>
      </trkpt>
      <trkpt lat="45.44464" lon="5.90755">
        <ele>1116</ele>
        <time>2017-08-21T06:01:16Z</time>
      </trkpt>
      <trkpt lat="45.44476" lon="5.90744">
        <ele>1118</ele>
        <time>2017-08-21T06:01:30Z</time>
      </trkpt>
      <trkpt lat="45.44494" lon="5.90718">
        <ele>1121</ele>
        <time>2017-08-21T06:01:55Z</time>
      </trkpt>
      <trkpt lat="45.44499" lon="5.90715">
        <ele>1122</ele>
        <time>2017-08-21T06:02:00Z</time>
      </trkpt>
      <trkpt lat="45.44507" lon="5.90708">
        <ele>1123</ele>
        <time>2017-08-21T06:02:10Z</time>
      </trkpt>
      <trkpt lat="45.44512" lon="5.90705">
        <ele>1124</ele>
        <time>2017-08-21T06:02:15Z</time>
      </trkpt>
      <trkpt lat="45.44519" lon="5.90697">
        <ele>1126</ele>
        <time>2017-08-21T06:02:24Z</time>
      </trkpt>
      <trkpt lat="45.44524" lon="5.90696">
        <ele>1127</ele>
        <time>2017-08-21T06:02:30Z</time>
      </trkpt>
      <trkpt lat="45.44536" lon="5.90682">
        <ele>1131</ele>
        <time>2017-08-21T06:02:46Z</time>
      </trkpt>
      <trkpt lat="45.44541" lon="5.90679">
        <ele>1132</ele>
        <time>2017-08-21T06:02:52Z</time>
      </trkpt>
      <trkpt lat="45.44552" lon="5.90665">
        <ele>1136</ele>
        <time>2017-08-21T06:03:11Z</time>
      </trkpt>
      <trkpt lat="45.44555" lon="5.90659">
        <ele>1137</ele>
        <time>2017-08-21T06:03:16Z</time>
      </trkpt>
      <trkpt lat="45.44557" lon="5.90653">
        <ele>1139</ele>
        <time>2017-08-21T06:03:21Z</time>
      </trkpt>
      <trkpt lat="45.44565" lon="5.90634">
        <ele>1140</ele>
        <time>2017-08-21T06:03:34Z</time>
      </trkpt>
      <trkpt lat="45.44575" lon="5.90617">
        <ele>1142</ele>
        <time>2017-08-21T06:03:51Z</time>
      </trkpt>
      <trkpt lat="45.44581" lon="5.90617">
        <ele>1143</ele>
        <time>2017-08-21T06:03:59Z</time>
      </trkpt>
      <trkpt lat="45.44588" lon="5.90628">
        <ele>1147</ele>
        <time>2017-08-21T06:04:09Z</time>
      </trkpt>
      <trkpt lat="45.44589" lon="5.90642">
        <ele>1151</ele>
        <time>2017-08-21T06:04:19Z</time>
      </trkpt>
      <trkpt lat="45.44593" lon="5.90646">
        <ele>1153</ele>
        <time>2017-08-21T06:04:25Z</time>
      </trkpt>
      <trkpt lat="45.44597" lon="5.90644">
        <ele>1154</ele>
        <time>2017-08-21T06:04:30Z</time>
      </trkpt>
      <trkpt lat="45.44605" lon="5.90637">
        <ele>1158</ele>
        <time>2017-08-21T06:04:39Z</time>
      </trkpt>
      <trkpt lat="45.44621" lon="5.90624">
        <ele>1165</ele>
        <time>2017-08-21T06:05:04Z</time>
      </trkpt>
      <trkpt lat="45.4463" lon="5.90617">
        <ele>1165</ele>
        <time>2017-08-21T06:05:17Z</time>
      </trkpt>
      <trkpt lat="45.44634" lon="5.90613">
        <ele>1165</ele>
        <time>2017-08-21T06:05:23Z</time>
      </trkpt>
      <trkpt lat="45.44644" lon="5.90604">
        <ele>1168</ele>
        <time>2017-08-21T06:05:34Z</time>
      </trkpt>
      <trkpt lat="45.44648" lon="5.90599">
        <ele>1169</ele>
        <time>2017-08-21T06:05:39Z</time>
      </trkpt>
      <trkpt lat="45.44651" lon="5.90592">
        <ele>1169</ele>
        <time>2017-08-21T06:05:45Z</time>
      </trkpt>
      <trkpt lat="45.44653" lon="5.90586">
        <ele>1169</ele>
        <time>2017-08-21T06:05:51Z</time>
      </trkpt>
      <trkpt lat="45.44655" lon="5.90579">
        <ele>1169</ele>
        <time>2017-08-21T06:05:57Z</time>
      </trkpt>
      <trkpt lat="45.44663" lon="5.90538">
        <ele>1178</ele>
        <time>2017-08-21T06:06:27Z</time>
      </trkpt>
      <trkpt lat="45.44668" lon="5.90525">
        <ele>1180</ele>
        <time>2017-08-21T06:06:38Z</time>
      </trkpt>
      <trkpt lat="45.44668" lon="5.90517">
        <ele>1181</ele>
        <time>2017-08-21T06:06:42Z</time>
      </trkpt>
      <trkpt lat="45.44673" lon="5.90506">
        <ele>1184</ele>
        <time>2017-08-21T06:06:51Z</time>
      </trkpt>
      <trkpt lat="45.44676" lon="5.90501">
        <ele>1184</ele>
        <time>2017-08-21T06:06:56Z</time>
      </trkpt>
      <trkpt lat="45.4468" lon="5.90497">
        <ele>1184</ele>
        <time>2017-08-21T06:07:03Z</time>
      </trkpt>
      <trkpt lat="45.44693" lon="5.9049">
        <ele>1188</ele>
        <time>2017-08-21T06:07:21Z</time>
      </trkpt>
      <trkpt lat="45.44703" lon="5.90489">
        <ele>1190</ele>
        <time>2017-08-21T06:07:31Z</time>
      </trkpt>
      <trkpt lat="45.44708" lon="5.90489">
        <ele>1191</ele>
        <time>2017-08-21T06:07:36Z</time>
      </trkpt>
      <trkpt lat="45.44713" lon="5.90491">
        <ele>1191</ele>
        <time>2017-08-21T06:07:41Z</time>
      </trkpt>
      <trkpt lat="45.44732" lon="5.90489">
        <ele>1193</ele>
        <time>2017-08-21T06:08:04Z</time>
      </trkpt>
      <trkpt lat="45.44737" lon="5.90488">
        <ele>1194</ele>
        <time>2017-08-21T06:08:10Z</time>
      </trkpt>
      <trkpt lat="45.44766" lon="5.90484">
        <ele>1200</ele>
        <time>2017-08-21T06:08:44Z</time>
      </trkpt>
      <trkpt lat="45.44771" lon="5.90484">
        <ele>1201</ele>
        <time>2017-08-21T06:08:50Z</time>
      </trkpt>
      <trkpt lat="45.44776" lon="5.90484">
        <ele>1201</ele>
        <time>2017-08-21T06:08:56Z</time>
      </trkpt>
      <trkpt lat="45.44781" lon="5.90484">
        <ele>1203</ele>
        <time>2017-08-21T06:09:01Z</time>
      </trkpt>
      <trkpt lat="45.44784" lon="5.90488">
        <ele>1204</ele>
        <time>2017-08-21T06:09:06Z</time>
      </trkpt>
      <trkpt lat="45.44782" lon="5.90494">
        <ele>1205</ele>
        <time>2017-08-21T06:09:12Z</time>
      </trkpt>
      <trkpt lat="45.44765" lon="5.90519">
        <ele>1213</ele>
        <time>2017-08-21T06:09:40Z</time>
      </trkpt>
      <trkpt lat="45.44763" lon="5.90525">
        <ele>1213</ele>
        <time>2017-08-21T06:09:45Z</time>
      </trkpt>
      <trkpt lat="45.44761" lon="5.90532">
        <ele>1213</ele>
        <time>2017-08-21T06:09:52Z</time>
      </trkpt>
      <trkpt lat="45.44758" lon="5.90545">
        <ele>1215</ele>
        <time>2017-08-21T06:10:03Z</time>
      </trkpt>
      <trkpt lat="45.44759" lon="5.90553">
        <ele>1217</ele>
        <time>2017-08-21T06:10:08Z</time>
      </trkpt>
      <trkpt lat="45.44758" lon="5.90559">
        <ele>1218</ele>
        <time>2017-08-21T06:10:13Z</time>
      </trkpt>
      <trkpt lat="45.44755" lon="5.90565">
        <ele>1219</ele>
        <time>2017-08-21T06:10:19Z</time>
      </trkpt>
      <trkpt lat="45.44751" lon="5.90569">
        <ele>1221</ele>
        <time>2017-08-21T06:10:26Z</time>
      </trkpt>
      <trkpt lat="45.4475" lon="5.90592">
        <ele>1226</ele>
        <time>2017-08-21T06:10:41Z</time>
      </trkpt>
      <trkpt lat="45.44749" lon="5.90605">
        <ele>1227</ele>
        <time>2017-08-21T06:10:52Z</time>
      </trkpt>
      <trkpt lat="45.44746" lon="5.90619">
        <ele>1230</ele>
        <time>2017-08-21T06:11:02Z</time>
      </trkpt>
      <trkpt lat="45.44746" lon="5.90627">
        <ele>1230</ele>
        <time>2017-08-21T06:11:07Z</time>
      </trkpt>
      <trkpt lat="45.44745" lon="5.90634">
        <ele>1231</ele>
        <time>2017-08-21T06:11:13Z</time>
      </trkpt>
      <trkpt lat="45.44745" lon="5.90642">
        <ele>1231</ele>
        <time>2017-08-21T06:11:18Z</time>
      </trkpt>
      <trkpt lat="45.44746" lon="5.90649">
        <ele>1231</ele>
        <time>2017-08-21T06:11:23Z</time>
      </trkpt>
      <trkpt lat="45.44744" lon="5.90671">
        <ele>1232</ele>
        <time>2017-08-21T06:11:41Z</time>
      </trkpt>
      <trkpt lat="45.44738" lon="5.90682">
        <ele>1233</ele>
        <time>2017-08-21T06:11:51Z</time>
      </trkpt>
      <trkpt lat="45.44737" lon="5.9069">
        <ele>1234</ele>
        <time>2017-08-21T06:11:57Z</time>
      </trkpt>
      <trkpt lat="45.44736" lon="5.90704">
        <ele>1235</ele>
        <time>2017-08-21T06:12:12Z</time>
      </trkpt>
      <trkpt lat="45.44737" lon="5.90719">
        <ele>1236</ele>
        <time>2017-08-21T06:12:21Z</time>
      </trkpt>
      <trkpt lat="45.44735" lon="5.90742">
        <ele>1238</ele>
        <time>2017-08-21T06:12:35Z</time>
      </trkpt>
      <trkpt lat="45.44736" lon="5.9075">
        <ele>1239</ele>
        <time>2017-08-21T06:12:40Z</time>
      </trkpt>
      <trkpt lat="45.44744" lon="5.90775">
        <ele>1243</ele>
        <time>2017-08-21T06:13:01Z</time>
      </trkpt>
      <trkpt lat="45.44748" lon="5.90811">
        <ele>1247</ele>
        <time>2017-08-21T06:13:33Z</time>
      </trkpt>
      <trkpt lat="45.4475" lon="5.90816">
        <ele>1247</ele>
        <time>2017-08-21T06:13:37Z</time>
      </trkpt>
      <trkpt lat="45.44757" lon="5.90843">
        <ele>1254</ele>
        <time>2017-08-21T06:14:02Z</time>
      </trkpt>
      <trkpt lat="45.44775" lon="5.90863">
        <ele>1264</ele>
        <time>2017-08-21T06:14:34Z</time>
      </trkpt>
      <trkpt lat="45.44801" lon="5.90877">
        <ele>1274</ele>
        <time>2017-08-21T06:15:13Z</time>
      </trkpt>
      <trkpt lat="45.44828" lon="5.90888">
        <ele>1279</ele>
        <time>2017-08-21T06:15:43Z</time>
      </trkpt>
      <trkpt lat="45.44838" lon="5.9089">
        <ele>1284</ele>
        <time>2017-08-21T06:15:56Z</time>
      </trkpt>
      <trkpt lat="45.44843" lon="5.90888">
        <ele>1286</ele>
        <time>2017-08-21T06:16:00Z</time>
      </trkpt>
      <trkpt lat="45.44852" lon="5.90894">
        <ele>1286</ele>
        <time>2017-08-21T06:16:12Z</time>
      </trkpt>
      <trkpt lat="45.44856" lon="5.90897">
        <ele>1286</ele>
        <time>2017-08-21T06:16:18Z</time>
      </trkpt>
      <trkpt lat="45.44861" lon="5.90897">
        <ele>1288</ele>
        <time>2017-08-21T06:16:24Z</time>
      </trkpt>
      <trkpt lat="45.44876" lon="5.90903">
        <ele>1292</ele>
        <time>2017-08-21T06:16:40Z</time>
      </trkpt>
      <trkpt lat="45.44901" lon="5.90923">
        <ele>1297</ele>
        <time>2017-08-21T06:17:14Z</time>
      </trkpt>
      <trkpt lat="45.4491" lon="5.90928">
        <ele>1299</ele>
        <time>2017-08-21T06:17:29Z</time>
      </trkpt>
      <trkpt lat="45.44929" lon="5.90928">
        <ele>1304</ele>
        <time>2017-08-21T06:17:56Z</time>
      </trkpt>
      <trkpt lat="45.44946" lon="5.90939">
        <ele>1310</ele>
        <time>2017-08-21T06:18:28Z</time>
      </trkpt>
      <trkpt lat="45.44964" lon="5.90942">
        <ele>1317</ele>
        <time>2017-08-21T06:18:59Z</time>
      </trkpt>
      <trkpt lat="45.44973" lon="5.90944">
        <ele>1319</ele>
        <time>2017-08-21T06:19:14Z</time>
      </trkpt>
      <trkpt lat="45.44981" lon="5.9095">
        <ele>1320</ele>
        <time>2017-08-21T06:19:28Z</time>
      </trkpt>
      <trkpt lat="45.44991" lon="5.90949">
        <ele>1326</ele>
        <time>2017-08-21T06:20:26Z</time>
      </trkpt>
      <trkpt lat="45.4501" lon="5.90953">
        <ele>1332</ele>
        <time>2017-08-21T06:20:56Z</time>
      </trkpt>
      <trkpt lat="45.4502" lon="5.90953">
        <ele>1332</ele>
        <time>2017-08-21T06:21:07Z</time>
      </trkpt>
      <trkpt lat="45.45049" lon="5.90952">
        <ele>1339</ele>
        <time>2017-08-21T06:21:38Z</time>
      </trkpt>
      <trkpt lat="45.45073" lon="5.90973">
        <ele>1342</ele>
        <time>2017-08-21T06:22:11Z</time>
      </trkpt>
      <trkpt lat="45.45096" lon="5.90995">
        <ele>1356</ele>
        <time>2017-08-21T06:22:42Z</time>
      </trkpt>
      <trkpt lat="45.45116" lon="5.91022">
        <ele>1367</ele>
        <time>2017-08-21T06:23:17Z</time>
      </trkpt>
      <trkpt lat="45.45122" lon="5.91031">
        <ele>1369</ele>
        <time>2017-08-21T06:23:28Z</time>
      </trkpt>
      <trkpt lat="45.45126" lon="5.91043">
        <ele>1369</ele>
        <time>2017-08-21T06:23:37Z</time>
      </trkpt>
      <trkpt lat="45.45132" lon="5.91053">
        <ele>1372</ele>
        <time>2017-08-21T06:23:51Z</time>
      </trkpt>
      <trkpt lat="45.45136" lon="5.91068">
        <ele>1378</ele>
        <time>2017-08-21T06:24:20Z</time>
      </trkpt>
      <trkpt lat="45.45148" lon="5.91096">
        <ele>1392</ele>
        <time>2017-08-21T06:24:58Z</time>
      </trkpt>
      <trkpt lat="45.45152" lon="5.91109">
        <ele>1393</ele>
        <time>2017-08-21T06:25:11Z</time>
      </trkpt>
      <trkpt lat="45.45163" lon="5.9113">
        <ele>1397</ele>
        <time>2017-08-21T06:25:37Z</time>
      </trkpt>
      <trkpt lat="45.45168" lon="5.91141">
        <ele>1398</ele>
        <time>2017-08-21T06:25:48Z</time>
      </trkpt>
      <trkpt lat="45.45183" lon="5.91168">
        <ele>1407</ele>
        <time>2017-08-21T06:26:22Z</time>
      </trkpt>
      <trkpt lat="45.45193" lon="5.91191">
        <ele>1415</ele>
        <time>2017-08-21T06:26:52Z</time>
      </trkpt>
      <trkpt lat="45.45207" lon="5.91209">
        <ele>1420</ele>
        <time>2017-08-21T06:27:13Z</time>
      </trkpt>
      <trkpt lat="45.45213" lon="5.91219">
        <ele>1422</ele>
        <time>2017-08-21T06:27:21Z</time>
      </trkpt>
      <trkpt lat="45.45218" lon="5.91258">
        <ele>1427</ele>
        <time>2017-08-21T06:27:57Z</time>
      </trkpt>
      <trkpt lat="45.45216" lon="5.91266">
        <ele>1428</ele>
        <time>2017-08-21T06:28:03Z</time>
      </trkpt>
      <trkpt lat="45.45219" lon="5.91272">
        <ele>1429</ele>
        <time>2017-08-21T06:28:08Z</time>
      </trkpt>
      <trkpt lat="45.45222" lon="5.91285">
        <ele>1432</ele>
        <time>2017-08-21T06:28:18Z</time>
      </trkpt>
      <trkpt lat="45.45213" lon="5.9129">
        <ele>1436</ele>
        <time>2017-08-21T06:31:22Z</time>
      </trkpt>
      <trkpt lat="45.45202" lon="5.91303">
        <ele>1439</ele>
        <time>2017-08-21T06:31:41Z</time>
      </trkpt>
      <trkpt lat="45.45192" lon="5.91297">
        <ele>1441</ele>
        <time>2017-08-21T06:32:00Z</time>
      </trkpt>
      <trkpt lat="45.45179" lon="5.91302">
        <ele>1448</ele>
        <time>2017-08-21T06:32:31Z</time>
      </trkpt>
      <trkpt lat="45.45168" lon="5.91313">
        <ele>1460</ele>
        <time>2017-08-21T06:33:07Z</time>
      </trkpt>
      <trkpt lat="45.45159" lon="5.91312">
        <ele>1462</ele>
        <time>2017-08-21T06:33:16Z</time>
      </trkpt>
      <trkpt lat="45.45133" lon="5.91328">
        <ele>1475</ele>
        <time>2017-08-21T06:34:29Z</time>
      </trkpt>
      <trkpt lat="45.45124" lon="5.91328">
        <ele>1478</ele>
        <time>2017-08-21T06:34:45Z</time>
      </trkpt>
      <trkpt lat="45.45115" lon="5.91333">
        <ele>1484</ele>
        <time>2017-08-21T06:35:01Z</time>
      </trkpt>
      <trkpt lat="45.45108" lon="5.91342">
        <ele>1489</ele>
        <time>2017-08-21T06:37:16Z</time>
      </trkpt>
      <trkpt lat="45.45093" lon="5.91366">
        <ele>1501</ele>
        <time>2017-08-21T06:38:05Z</time>
      </trkpt>
      <trkpt lat="45.45089" lon="5.91374">
        <ele>1505</ele>
        <time>2017-08-21T06:38:16Z</time>
      </trkpt>
      <trkpt lat="45.45089" lon="5.9138">
        <ele>1506</ele>
        <time>2017-08-21T06:38:26Z</time>
      </trkpt>
      <trkpt lat="45.45085" lon="5.91385">
        <ele>1507</ele>
        <time>2017-08-21T06:38:38Z</time>
      </trkpt>
      <trkpt lat="45.45082" lon="5.91395">
        <ele>1510</ele>
        <time>2017-08-21T06:38:57Z</time>
      </trkpt>
      <trkpt lat="45.45076" lon="5.91396">
        <ele>1511</ele>
        <time>2017-08-21T06:39:16Z</time>
      </trkpt>
      <trkpt lat="45.45067" lon="5.91401">
        <ele>1517</ele>
        <time>2017-08-21T06:39:37Z</time>
      </trkpt>
      <trkpt lat="45.45068" lon="5.91409">
        <ele>1521</ele>
        <time>2017-08-21T06:39:55Z</time>
      </trkpt>
      <trkpt lat="45.45062" lon="5.91408">
        <ele>1523</ele>
        <time>2017-08-21T06:40:23Z</time>
      </trkpt>
      <trkpt lat="45.45055" lon="5.91418">
        <ele>1528</ele>
        <time>2017-08-21T06:40:39Z</time>
      </trkpt>
      <trkpt lat="45.45056" lon="5.91428">
        <ele>1532</ele>
        <time>2017-08-21T06:40:54Z</time>
      </trkpt>
      <trkpt lat="45.45048" lon="5.91434">
        <ele>1535</ele>
        <time>2017-08-21T06:41:21Z</time>
      </trkpt>
      <trkpt lat="45.45044" lon="5.91447">
        <ele>1541</ele>
        <time>2017-08-21T06:42:08Z</time>
      </trkpt>
      <trkpt lat="45.45038" lon="5.91456">
        <ele>1544</ele>
        <time>2017-08-21T06:42:32Z</time>
      </trkpt>
      <trkpt lat="45.45037" lon="5.91472">
        <ele>1553</ele>
        <time>2017-08-21T06:42:51Z</time>
      </trkpt>
      <trkpt lat="45.45029" lon="5.91476">
        <ele>1555</ele>
        <time>2017-08-21T06:43:17Z</time>
      </trkpt>
      <trkpt lat="45.45023" lon="5.91501">
        <ele>1561</ele>
        <time>2017-08-21T06:44:42Z</time>
      </trkpt>
      <trkpt lat="45.45018" lon="5.91512">
        <ele>1562</ele>
        <time>2017-08-21T06:44:55Z</time>
      </trkpt>
      <trkpt lat="45.45012" lon="5.91521">
        <ele>1564</ele>
        <time>2017-08-21T06:45:13Z</time>
      </trkpt>
      <trkpt lat="45.45005" lon="5.91529">
        <ele>1568</ele>
        <time>2017-08-21T06:45:35Z</time>
      </trkpt>
      <trkpt lat="45.45005" lon="5.91538">
        <ele>1573</ele>
        <time>2017-08-21T06:46:33Z</time>
      </trkpt>
      <trkpt lat="45.45004" lon="5.91546">
        <ele>1578</ele>
        <time>2017-08-21T06:46:48Z</time>
      </trkpt>
      <trkpt lat="45.45004" lon="5.91554">
        <ele>1582</ele>
        <time>2017-08-21T06:47:03Z</time>
      </trkpt>
      <trkpt lat="45.45002" lon="5.91563">
        <ele>1583</ele>
        <time>2017-08-21T06:47:15Z</time>
      </trkpt>
      <trkpt lat="45.45003" lon="5.9157">
        <ele>1587</ele>
        <time>2017-08-21T06:48:10Z</time>
      </trkpt>
      <trkpt lat="45.44999" lon="5.91574">
        <ele>1587</ele>
        <time>2017-08-21T06:48:20Z</time>
      </trkpt>
      <trkpt lat="45.44996" lon="5.91581">
        <ele>1590</ele>
        <time>2017-08-21T06:48:32Z</time>
      </trkpt>
      <trkpt lat="45.44991" lon="5.91581">
        <ele>1591</ele>
        <time>2017-08-21T06:48:37Z</time>
      </trkpt>
      <trkpt lat="45.4499" lon="5.91587">
        <ele>1594</ele>
        <time>2017-08-21T06:48:54Z</time>
      </trkpt>
      <trkpt lat="45.44986" lon="5.91592">
        <ele>1594</ele>
        <time>2017-08-21T06:49:00Z</time>
      </trkpt>
      <trkpt lat="45.44983" lon="5.91597">
        <ele>1596</ele>
        <time>2017-08-21T06:49:09Z</time>
      </trkpt>
      <trkpt lat="45.44971" lon="5.9161">
        <ele>1602</ele>
        <time>2017-08-21T06:49:39Z</time>
      </trkpt>
      <trkpt lat="45.44966" lon="5.91623">
        <ele>1606</ele>
        <time>2017-08-21T06:50:05Z</time>
      </trkpt>
      <trkpt lat="45.44977" lon="5.91629">
        <ele>1613</ele>
        <time>2017-08-21T06:50:29Z</time>
      </trkpt>
      <trkpt lat="45.44986" lon="5.91636">
        <ele>1616</ele>
        <time>2017-08-21T06:50:46Z</time>
      </trkpt>
      <trkpt lat="45.44984" lon="5.91643">
        <ele>1619</ele>
        <time>2017-08-21T06:51:05Z</time>
      </trkpt>
      <trkpt lat="45.44973" lon="5.91648">
        <ele>1623</ele>
        <time>2017-08-21T06:51:28Z</time>
      </trkpt>
      <trkpt lat="45.4497" lon="5.91653">
        <ele>1625</ele>
        <time>2017-08-21T06:51:36Z</time>
      </trkpt>
      <trkpt lat="45.44972" lon="5.91659">
        <ele>1627</ele>
        <time>2017-08-21T06:53:49Z</time>
      </trkpt>
      <trkpt lat="45.44977" lon="5.91659">
        <ele>1627</ele>
        <time>2017-08-21T06:53:57Z</time>
      </trkpt>
      <trkpt lat="45.44975" lon="5.91667">
        <ele>1630</ele>
        <time>2017-08-21T06:54:10Z</time>
      </trkpt>
      <trkpt lat="45.44977" lon="5.91676">
        <ele>1634</ele>
        <time>2017-08-21T06:54:26Z</time>
      </trkpt>
      <trkpt lat="45.44982" lon="5.91678">
        <ele>1636</ele>
        <time>2017-08-21T06:54:34Z</time>
      </trkpt>
      <trkpt lat="45.44984" lon="5.91685">
        <ele>1637</ele>
        <time>2017-08-21T06:54:42Z</time>
      </trkpt>
      <trkpt lat="45.44979" lon="5.91685">
        <ele>1638</ele>
        <time>2017-08-21T06:54:48Z</time>
      </trkpt>
      <trkpt lat="45.44975" lon="5.91688">
        <ele>1639</ele>
        <time>2017-08-21T06:54:54Z</time>
      </trkpt>
      <trkpt lat="45.44971" lon="5.91693">
        <ele>1643</ele>
        <time>2017-08-21T06:55:08Z</time>
      </trkpt>
      <trkpt lat="45.44974" lon="5.91697">
        <ele>1643</ele>
        <time>2017-08-21T06:55:14Z</time>
      </trkpt>
      <trkpt lat="45.44978" lon="5.91702">
        <ele>1646</ele>
        <time>2017-08-21T06:55:23Z</time>
      </trkpt>
      <trkpt lat="45.44982" lon="5.91711">
        <ele>1651</ele>
        <time>2017-08-21T06:55:48Z</time>
      </trkpt>
      <trkpt lat="45.44977" lon="5.91714">
        <ele>1653</ele>
        <time>2017-08-21T06:56:01Z</time>
      </trkpt>
      <trkpt lat="45.44981" lon="5.91719">
        <ele>1654</ele>
        <time>2017-08-21T06:56:14Z</time>
      </trkpt>
      <trkpt lat="45.44984" lon="5.91724">
        <ele>1657</ele>
        <time>2017-08-21T06:56:22Z</time>
      </trkpt>
      <trkpt lat="45.44989" lon="5.91725">
        <ele>1659</ele>
        <time>2017-08-21T06:56:30Z</time>
      </trkpt>
      <trkpt lat="45.44993" lon="5.91729">
        <ele>1661</ele>
        <time>2017-08-21T06:56:40Z</time>
      </trkpt>
      <trkpt lat="45.44998" lon="5.91728">
        <ele>1664</ele>
        <time>2017-08-21T06:57:02Z</time>
      </trkpt>
      <trkpt lat="45.45001" lon="5.91736">
        <ele>1667</ele>
        <time>2017-08-21T06:57:22Z</time>
      </trkpt>
      <trkpt lat="45.45006" lon="5.91737">
        <ele>1669</ele>
        <time>2017-08-21T06:57:29Z</time>
      </trkpt>
      <trkpt lat="45.4501" lon="5.91742">
        <ele>1670</ele>
        <time>2017-08-21T06:57:36Z</time>
      </trkpt>
      <trkpt lat="45.45012" lon="5.91747">
        <ele>1672</ele>
        <time>2017-08-21T06:57:46Z</time>
      </trkpt>
      <trkpt lat="45.45006" lon="5.91746">
        <ele>1673</ele>
        <time>2017-08-21T06:58:00Z</time>
      </trkpt>
      <trkpt lat="45.45002" lon="5.91762">
        <ele>1676</ele>
        <time>2017-08-21T06:58:23Z</time>
      </trkpt>
      <trkpt lat="45.44971" lon="5.9176">
        <ele>1680</ele>
        <time>2017-08-21T06:59:14Z</time>
      </trkpt>
      <trkpt lat="45.44972" lon="5.91775">
        <ele>1690</ele>
        <time>2017-08-21T07:01:54Z</time>
      </trkpt>
      <trkpt lat="45.44972" lon="5.91792">
        <ele>1692</ele>
        <time>2017-08-21T07:02:10Z</time>
      </trkpt>
      <trkpt lat="45.44971" lon="5.91804">
        <ele>1693</ele>
        <time>2017-08-21T07:02:20Z</time>
      </trkpt>
      <trkpt lat="45.4497" lon="5.91811">
        <ele>1698</ele>
        <time>2017-08-21T07:02:42Z</time>
      </trkpt>
      <trkpt lat="45.4498" lon="5.91809">
        <ele>1701</ele>
        <time>2017-08-21T07:03:00Z</time>
      </trkpt>
      <trkpt lat="45.44983" lon="5.918">
        <ele>1705</ele>
        <time>2017-08-21T07:03:14Z</time>
      </trkpt>
      <trkpt lat="45.44984" lon="5.91793">
        <ele>1706</ele>
        <time>2017-08-21T07:03:19Z</time>
      </trkpt>
      <trkpt lat="45.44984" lon="5.91787">
        <ele>1707</ele>
        <time>2017-08-21T07:03:23Z</time>
      </trkpt>
      <trkpt lat="45.44985" lon="5.9178">
        <ele>1709</ele>
        <time>2017-08-21T07:03:28Z</time>
      </trkpt>
      <trkpt lat="45.44987" lon="5.91774">
        <ele>1710</ele>
        <time>2017-08-21T07:03:34Z</time>
      </trkpt>
      <trkpt lat="45.44992" lon="5.91771">
        <ele>1712</ele>
        <time>2017-08-21T07:03:40Z</time>
      </trkpt>
      <trkpt lat="45.45001" lon="5.91769">
        <ele>1716</ele>
        <time>2017-08-21T07:03:53Z</time>
      </trkpt>
      <trkpt lat="45.45006" lon="5.91772">
        <ele>1717</ele>
        <time>2017-08-21T07:03:59Z</time>
      </trkpt>
      <trkpt lat="45.4501" lon="5.91777">
        <ele>1719</ele>
        <time>2017-08-21T07:04:06Z</time>
      </trkpt>
      <trkpt lat="45.45014" lon="5.91781">
        <ele>1719</ele>
        <time>2017-08-21T07:04:12Z</time>
      </trkpt>
      <trkpt lat="45.45018" lon="5.91787">
        <ele>1721</ele>
        <time>2017-08-21T07:04:18Z</time>
      </trkpt>
      <trkpt lat="45.45018" lon="5.91794">
        <ele>1721</ele>
        <time>2017-08-21T07:04:24Z</time>
      </trkpt>
      <trkpt lat="45.45025" lon="5.91809">
        <ele>1722</ele>
        <time>2017-08-21T07:04:36Z</time>
      </trkpt>
      <trkpt lat="45.45029" lon="5.91812">
        <ele>1722</ele>
        <time>2017-08-21T07:04:42Z</time>
      </trkpt>
      <trkpt lat="45.45034" lon="5.91817">
        <ele>1721</ele>
        <time>2017-08-21T07:04:55Z</time>
      </trkpt>
      <trkpt lat="45.45046" lon="5.91824">
        <ele>1721</ele>
        <time>2017-08-21T07:05:17Z</time>
      </trkpt>
      <trkpt lat="45.45049" lon="5.91828">
        <ele>1721</ele>
        <time>2017-08-21T07:05:22Z</time>
      </trkpt>
      <trkpt lat="45.45054" lon="5.91831">
        <ele>1723</ele>
        <time>2017-08-21T07:05:29Z</time>
      </trkpt>
      <trkpt lat="45.45064" lon="5.91829">
        <ele>1726</ele>
        <time>2017-08-21T07:05:39Z</time>
      </trkpt>
      <trkpt lat="45.45073" lon="5.91834">
        <ele>1727</ele>
        <time>2017-08-21T07:05:47Z</time>
      </trkpt>
      <trkpt lat="45.45078" lon="5.91838">
        <ele>1727</ele>
        <time>2017-08-21T07:05:52Z</time>
      </trkpt>
      <trkpt lat="45.45083" lon="5.9184">
        <ele>1727</ele>
        <time>2017-08-21T07:05:58Z</time>
      </trkpt>
      <trkpt lat="45.45088" lon="5.9184">
        <ele>1728</ele>
        <time>2017-08-21T07:06:02Z</time>
      </trkpt>
      <trkpt lat="45.45096" lon="5.91847">
        <ele>1728</ele>
        <time>2017-08-21T07:06:10Z</time>
      </trkpt>
      <trkpt lat="45.45099" lon="5.91852">
        <ele>1728</ele>
        <time>2017-08-21T07:06:14Z</time>
      </trkpt>
      <trkpt lat="45.45103" lon="5.91857">
        <ele>1728</ele>
        <time>2017-08-21T07:06:23Z</time>
      </trkpt>
      <trkpt lat="45.45112" lon="5.91859">
        <ele>1727</ele>
        <time>2017-08-21T07:06:30Z</time>
      </trkpt>
      <trkpt lat="45.45129" lon="5.91872">
        <ele>1725</ele>
        <time>2017-08-21T07:06:49Z</time>
      </trkpt>
      <trkpt lat="45.45134" lon="5.91874">
        <ele>1724</ele>
        <time>2017-08-21T07:06:54Z</time>
      </trkpt>
      <trkpt lat="45.45138" lon="5.91874">
        <ele>1725</ele>
        <time>2017-08-21T07:07:01Z</time>
      </trkpt>
      <trkpt lat="45.45143" lon="5.9188">
        <ele>1728</ele>
        <time>2017-08-21T07:07:16Z</time>
      </trkpt>
      <trkpt lat="45.45142" lon="5.91888">
        <ele>1729</ele>
        <time>2017-08-21T07:07:25Z</time>
      </trkpt>
      <trkpt lat="45.45143" lon="5.91894">
        <ele>1731</ele>
        <time>2017-08-21T07:07:35Z</time>
      </trkpt>
      <trkpt lat="45.45148" lon="5.91907">
        <ele>1737</ele>
        <time>2017-08-21T07:07:58Z</time>
      </trkpt>
      <trkpt lat="45.45148" lon="5.91917">
        <ele>1740</ele>
        <time>2017-08-21T07:08:11Z</time>
      </trkpt>
      <trkpt lat="45.45143" lon="5.91912">
        <ele>1741</ele>
        <time>2017-08-21T07:08:22Z</time>
      </trkpt>
      <trkpt lat="45.45138" lon="5.9191">
        <ele>1742</ele>
        <time>2017-08-21T07:08:27Z</time>
      </trkpt>
      <trkpt lat="45.45139" lon="5.91925">
        <ele>1749</ele>
        <time>2017-08-21T07:09:09Z</time>
      </trkpt>
      <trkpt lat="45.45141" lon="5.9193">
        <ele>1751</ele>
        <time>2017-08-21T07:09:23Z</time>
      </trkpt>
      <trkpt lat="45.45141" lon="5.9194">
        <ele>1756</ele>
        <time>2017-08-21T07:10:04Z</time>
      </trkpt>
      <trkpt lat="45.45135" lon="5.91954">
        <ele>1760</ele>
        <time>2017-08-21T07:10:45Z</time>
      </trkpt>
      <trkpt lat="45.45122" lon="5.91966">
        <ele>1772</ele>
        <time>2017-08-21T07:12:32Z</time>
      </trkpt>
      <trkpt lat="45.45103" lon="5.91967">
        <ele>1779</ele>
        <time>2017-08-21T07:12:53Z</time>
      </trkpt>
      <trkpt lat="45.45112" lon="5.91974">
        <ele>1783</ele>
        <time>2017-08-21T07:13:09Z</time>
      </trkpt>
      <trkpt lat="45.4512" lon="5.91982">
        <ele>1786</ele>
        <time>2017-08-21T07:13:21Z</time>
      </trkpt>
      <trkpt lat="45.45112" lon="5.91988">
        <ele>1790</ele>
        <time>2017-08-21T07:14:35Z</time>
      </trkpt>
      <trkpt lat="45.45117" lon="5.92003">
        <ele>1798</ele>
        <time>2017-08-21T07:15:18Z</time>
      </trkpt>
      <trkpt lat="45.45119" lon="5.92009">
        <ele>1800</ele>
        <time>2017-08-21T07:15:26Z</time>
      </trkpt>
      <trkpt lat="45.4512" lon="5.92015">
        <ele>1804</ele>
        <time>2017-08-21T07:16:04Z</time>
      </trkpt>
      <trkpt lat="45.45115" lon="5.92018">
        <ele>1805</ele>
        <time>2017-08-21T07:16:10Z</time>
      </trkpt>
      <trkpt lat="45.4512" lon="5.92025">
        <ele>1807</ele>
        <time>2017-08-21T07:16:26Z</time>
      </trkpt>
      <trkpt lat="45.45129" lon="5.92027">
        <ele>1811</ele>
        <time>2017-08-21T07:16:38Z</time>
      </trkpt>
      <trkpt lat="45.45133" lon="5.92035">
        <ele>1815</ele>
        <time>2017-08-21T07:17:28Z</time>
      </trkpt>
      <trkpt lat="45.45138" lon="5.92037">
        <ele>1816</ele>
        <time>2017-08-21T07:17:35Z</time>
      </trkpt>
      <trkpt lat="45.45141" lon="5.92046">
        <ele>1819</ele>
        <time>2017-08-21T07:17:54Z</time>
      </trkpt>
      <trkpt lat="45.4515" lon="5.92048">
        <ele>1822</ele>
        <time>2017-08-21T07:18:10Z</time>
      </trkpt>
      <trkpt lat="45.45154" lon="5.92051">
        <ele>1825</ele>
        <time>2017-08-21T07:18:20Z</time>
      </trkpt>
      <trkpt lat="45.4515" lon="5.92055">
        <ele>1826</ele>
        <time>2017-08-21T07:18:29Z</time>
      </trkpt>
      <trkpt lat="45.45155" lon="5.9206">
        <ele>1829</ele>
        <time>2017-08-21T07:18:53Z</time>
      </trkpt>
      <trkpt lat="45.45161" lon="5.92063">
        <ele>1834</ele>
        <time>2017-08-21T07:19:13Z</time>
      </trkpt>
      <trkpt lat="45.4516" lon="5.92072">
        <ele>1837</ele>
        <time>2017-08-21T07:19:42Z</time>
      </trkpt>
      <trkpt lat="45.45166" lon="5.92072">
        <ele>1842</ele>
        <time>2017-08-21T07:20:27Z</time>
      </trkpt>
      <trkpt lat="45.4517" lon="5.92067">
        <ele>1843</ele>
        <time>2017-08-21T07:20:33Z</time>
      </trkpt>
      <trkpt lat="45.45175" lon="5.92065">
        <ele>1846</ele>
        <time>2017-08-21T07:20:46Z</time>
      </trkpt>
      <trkpt lat="45.45181" lon="5.92054">
        <ele>1849</ele>
        <time>2017-08-21T07:21:01Z</time>
      </trkpt>
      <trkpt lat="45.45188" lon="5.92053">
        <ele>1851</ele>
        <time>2017-08-21T07:21:14Z</time>
      </trkpt>
      <trkpt lat="45.45196" lon="5.92046">
        <ele>1852</ele>
        <time>2017-08-21T07:21:29Z</time>
      </trkpt>
      <trkpt lat="45.45203" lon="5.92048">
        <ele>1854</ele>
        <time>2017-08-21T07:21:50Z</time>
      </trkpt>
      <trkpt lat="45.45205" lon="5.92055">
        <ele>1860</ele>
        <time>2017-08-21T07:29:46Z</time>
      </trkpt>
      <trkpt lat="45.45207" lon="5.92061">
        <ele>1859</ele>
        <time>2017-08-21T07:29:54Z</time>
      </trkpt>
      <trkpt lat="45.45212" lon="5.92072">
        <ele>1858</ele>
        <time>2017-08-21T07:30:07Z</time>
      </trkpt>
      <trkpt lat="45.45213" lon="5.92079">
        <ele>1857</ele>
        <time>2017-08-21T07:30:13Z</time>
      </trkpt>
      <trkpt lat="45.45215" lon="5.92085">
        <ele>1857</ele>
        <time>2017-08-21T07:30:20Z</time>
      </trkpt>
      <trkpt lat="45.4522" lon="5.92088">
        <ele>1856</ele>
        <time>2017-08-21T07:30:24Z</time>
      </trkpt>
      <trkpt lat="45.45224" lon="5.92093">
        <ele>1855</ele>
        <time>2017-08-21T07:30:27Z</time>
      </trkpt>
      <trkpt lat="45.45225" lon="5.92101">
        <ele>1855</ele>
        <time>2017-08-21T07:30:32Z</time>
      </trkpt>
      <trkpt lat="45.45226" lon="5.92107">
        <ele>1855</ele>
        <time>2017-08-21T07:30:36Z</time>
      </trkpt>
      <trkpt lat="45.45228" lon="5.9212">
        <ele>1856</ele>
        <time>2017-08-21T07:30:48Z</time>
      </trkpt>
      <trkpt lat="45.45233" lon="5.92132">
        <ele>1855</ele>
        <time>2017-08-21T07:30:58Z</time>
      </trkpt>
      <trkpt lat="45.45239" lon="5.92142">
        <ele>1854</ele>
        <time>2017-08-21T07:31:06Z</time>
      </trkpt>
      <trkpt lat="45.45247" lon="5.9215">
        <ele>1853</ele>
        <time>2017-08-21T07:31:14Z</time>
      </trkpt>
      <trkpt lat="45.45256" lon="5.92152">
        <ele>1852</ele>
        <time>2017-08-21T07:31:22Z</time>
      </trkpt>
      <trkpt lat="45.45264" lon="5.92159">
        <ele>1852</ele>
        <time>2017-08-21T07:31:34Z</time>
      </trkpt>
      <trkpt lat="45.45274" lon="5.92163">
        <ele>1851</ele>
        <time>2017-08-21T07:31:43Z</time>
      </trkpt>
      <trkpt lat="45.45283" lon="5.92167">
        <ele>1850</ele>
        <time>2017-08-21T07:31:50Z</time>
      </trkpt>
      <trkpt lat="45.45288" lon="5.92172">
        <ele>1851</ele>
        <time>2017-08-21T07:31:56Z</time>
      </trkpt>
      <trkpt lat="45.45293" lon="5.92173">
        <ele>1851</ele>
        <time>2017-08-21T07:32:00Z</time>
      </trkpt>
      <trkpt lat="45.45295" lon="5.92178">
        <ele>1852</ele>
        <time>2017-08-21T07:32:07Z</time>
      </trkpt>
      <trkpt lat="45.45298" lon="5.92184">
        <ele>1851</ele>
        <time>2017-08-21T07:32:12Z</time>
      </trkpt>
      <trkpt lat="45.45306" lon="5.92192">
        <ele>1851</ele>
        <time>2017-08-21T07:32:24Z</time>
      </trkpt>
      <trkpt lat="45.45309" lon="5.92196">
        <ele>1851</ele>
        <time>2017-08-21T07:32:30Z</time>
      </trkpt>
      <trkpt lat="45.45314" lon="5.92199">
        <ele>1851</ele>
        <time>2017-08-21T07:32:36Z</time>
      </trkpt>
      <trkpt lat="45.45319" lon="5.92202">
        <ele>1851</ele>
        <time>2017-08-21T07:32:40Z</time>
      </trkpt>
      <trkpt lat="45.45327" lon="5.92211">
        <ele>1850</ele>
        <time>2017-08-21T07:32:47Z</time>
      </trkpt>
      <trkpt lat="45.4533" lon="5.92216">
        <ele>1851</ele>
        <time>2017-08-21T07:32:51Z</time>
      </trkpt>
      <trkpt lat="45.45334" lon="5.9222">
        <ele>1851</ele>
        <time>2017-08-21T07:32:55Z</time>
      </trkpt>
      <trkpt lat="45.45349" lon="5.92224">
        <ele>1852</ele>
        <time>2017-08-21T07:33:06Z</time>
      </trkpt>
      <trkpt lat="45.45354" lon="5.92226">
        <ele>1852</ele>
        <time>2017-08-21T07:33:12Z</time>
      </trkpt>
      <trkpt lat="45.45359" lon="5.92226">
        <ele>1853</ele>
        <time>2017-08-21T07:33:19Z</time>
      </trkpt>
      <trkpt lat="45.45368" lon="5.92228">
        <ele>1854</ele>
        <time>2017-08-21T07:33:26Z</time>
      </trkpt>
      <trkpt lat="45.45378" lon="5.92228">
        <ele>1856</ele>
        <time>2017-08-21T07:33:35Z</time>
      </trkpt>
      <trkpt lat="45.45382" lon="5.92227">
        <ele>1857</ele>
        <time>2017-08-21T07:33:41Z</time>
      </trkpt>
      <trkpt lat="45.45386" lon="5.9223">
        <ele>1858</ele>
        <time>2017-08-21T07:33:46Z</time>
      </trkpt>
      <trkpt lat="45.45395" lon="5.92247">
        <ele>1860</ele>
        <time>2017-08-21T07:34:03Z</time>
      </trkpt>
      <trkpt lat="45.454" lon="5.92247">
        <ele>1860</ele>
        <time>2017-08-21T07:34:10Z</time>
      </trkpt>
      <trkpt lat="45.45404" lon="5.92244">
        <ele>1860</ele>
        <time>2017-08-21T07:34:16Z</time>
      </trkpt>
      <trkpt lat="45.45409" lon="5.92243">
        <ele>1859</ele>
        <time>2017-08-21T07:34:22Z</time>
      </trkpt>
      <trkpt lat="45.45413" lon="5.92239">
        <ele>1859</ele>
        <time>2017-08-21T07:34:26Z</time>
      </trkpt>
      <trkpt lat="45.45418" lon="5.92237">
        <ele>1859</ele>
        <time>2017-08-21T07:34:30Z</time>
      </trkpt>
      <trkpt lat="45.45423" lon="5.92239">
        <ele>1859</ele>
        <time>2017-08-21T07:34:34Z</time>
      </trkpt>
      <trkpt lat="45.45431" lon="5.92248">
        <ele>1858</ele>
        <time>2017-08-21T07:34:44Z</time>
      </trkpt>
      <trkpt lat="45.45436" lon="5.92257">
        <ele>1857</ele>
        <time>2017-08-21T07:34:54Z</time>
      </trkpt>
      <trkpt lat="45.45436" lon="5.92263">
        <ele>1859</ele>
        <time>2017-08-21T07:35:03Z</time>
      </trkpt>
      <trkpt lat="45.4544" lon="5.9226">
        <ele>1859</ele>
        <time>2017-08-21T07:35:32Z</time>
      </trkpt>
      <trkpt lat="45.45446" lon="5.9226">
        <ele>1859</ele>
        <time>2017-08-21T07:38:21Z</time>
      </trkpt>
      <trkpt lat="45.45451" lon="5.9226">
        <ele>1859</ele>
        <time>2017-08-21T07:38:26Z</time>
      </trkpt>
      <trkpt lat="45.45465" lon="5.92254">
        <ele>1860</ele>
        <time>2017-08-21T07:38:39Z</time>
      </trkpt>
      <trkpt lat="45.4547" lon="5.92258">
        <ele>1860</ele>
        <time>2017-08-21T07:38:46Z</time>
      </trkpt>
      <trkpt lat="45.45472" lon="5.92263">
        <ele>1859</ele>
        <time>2017-08-21T07:38:53Z</time>
      </trkpt>
      <trkpt lat="45.45474" lon="5.92269">
        <ele>1857</ele>
        <time>2017-08-21T07:39:01Z</time>
      </trkpt>
      <trkpt lat="45.45473" lon="5.9229">
        <ele>1852</ele>
        <time>2017-08-21T07:40:27Z</time>
      </trkpt>
      <trkpt lat="45.45469" lon="5.92293">
        <ele>1851</ele>
        <time>2017-08-21T07:40:33Z</time>
      </trkpt>
      <trkpt lat="45.45473" lon="5.92299">
        <ele>1849</ele>
        <time>2017-08-21T07:40:52Z</time>
      </trkpt>
      <trkpt lat="45.45486" lon="5.92307">
        <ele>1843</ele>
        <time>2017-08-21T07:41:36Z</time>
      </trkpt>
      <trkpt lat="45.4549" lon="5.9231">
        <ele>1844</ele>
        <time>2017-08-21T07:41:41Z</time>
      </trkpt>
      <trkpt lat="45.45494" lon="5.92315">
        <ele>1843</ele>
        <time>2017-08-21T07:41:47Z</time>
      </trkpt>
      <trkpt lat="45.45501" lon="5.92318">
        <ele>1843</ele>
        <time>2017-08-21T07:42:03Z</time>
      </trkpt>
      <trkpt lat="45.45504" lon="5.92323">
        <ele>1843</ele>
        <time>2017-08-21T07:42:09Z</time>
      </trkpt>
      <trkpt lat="45.45509" lon="5.92331">
        <ele>1842</ele>
        <time>2017-08-21T07:42:16Z</time>
      </trkpt>
      <trkpt lat="45.45513" lon="5.92334">
        <ele>1841</ele>
        <time>2017-08-21T07:42:22Z</time>
      </trkpt>
      <trkpt lat="45.45518" lon="5.92334">
        <ele>1842</ele>
        <time>2017-08-21T07:42:29Z</time>
      </trkpt>
      <trkpt lat="45.45523" lon="5.92337">
        <ele>1842</ele>
        <time>2017-08-21T07:42:34Z</time>
      </trkpt>
      <trkpt lat="45.45526" lon="5.92342">
        <ele>1842</ele>
        <time>2017-08-21T07:42:40Z</time>
      </trkpt>
      <trkpt lat="45.4553" lon="5.92346">
        <ele>1842</ele>
        <time>2017-08-21T07:42:46Z</time>
      </trkpt>
      <trkpt lat="45.45535" lon="5.92346">
        <ele>1843</ele>
        <time>2017-08-21T07:42:52Z</time>
      </trkpt>
      <trkpt lat="45.45539" lon="5.92351">
        <ele>1843</ele>
        <time>2017-08-21T07:42:57Z</time>
      </trkpt>
      <trkpt lat="45.45543" lon="5.92354">
        <ele>1843</ele>
        <time>2017-08-21T07:43:02Z</time>
      </trkpt>
      <trkpt lat="45.45547" lon="5.92351">
        <ele>1844</ele>
        <time>2017-08-21T07:43:09Z</time>
      </trkpt>
      <trkpt lat="45.45552" lon="5.92354">
        <ele>1845</ele>
        <time>2017-08-21T07:43:16Z</time>
      </trkpt>
      <trkpt lat="45.45556" lon="5.92358">
        <ele>1845</ele>
        <time>2017-08-21T07:43:23Z</time>
      </trkpt>
      <trkpt lat="45.45559" lon="5.92363">
        <ele>1845</ele>
        <time>2017-08-21T07:43:28Z</time>
      </trkpt>
      <trkpt lat="45.45569" lon="5.9237">
        <ele>1844</ele>
        <time>2017-08-21T07:43:38Z</time>
      </trkpt>
      <trkpt lat="45.45574" lon="5.92371">
        <ele>1844</ele>
        <time>2017-08-21T07:43:44Z</time>
      </trkpt>
      <trkpt lat="45.45578" lon="5.92374">
        <ele>1844</ele>
        <time>2017-08-21T07:43:51Z</time>
      </trkpt>
      <trkpt lat="45.45587" lon="5.92371">
        <ele>1845</ele>
        <time>2017-08-21T07:44:04Z</time>
      </trkpt>
      <trkpt lat="45.45594" lon="5.92369">
        <ele>1848</ele>
        <time>2017-08-21T07:44:17Z</time>
      </trkpt>
      <trkpt lat="45.45597" lon="5.92364">
        <ele>1849</ele>
        <time>2017-08-21T07:44:25Z</time>
      </trkpt>
      <trkpt lat="45.45602" lon="5.92366">
        <ele>1851</ele>
        <time>2017-08-21T07:44:32Z</time>
      </trkpt>
      <trkpt lat="45.45608" lon="5.92371">
        <ele>1851</ele>
        <time>2017-08-21T07:44:42Z</time>
      </trkpt>
      <trkpt lat="45.45612" lon="5.92371">
        <ele>1852</ele>
        <time>2017-08-21T07:44:48Z</time>
      </trkpt>
      <trkpt lat="45.45617" lon="5.92374">
        <ele>1852</ele>
        <time>2017-08-21T07:44:54Z</time>
      </trkpt>
      <trkpt lat="45.45626" lon="5.92372">
        <ele>1854</ele>
        <time>2017-08-21T07:45:05Z</time>
      </trkpt>
      <trkpt lat="45.4563" lon="5.92375">
        <ele>1855</ele>
        <time>2017-08-21T07:45:10Z</time>
      </trkpt>
      <trkpt lat="45.45634" lon="5.92381">
        <ele>1855</ele>
        <time>2017-08-21T07:45:16Z</time>
      </trkpt>
      <trkpt lat="45.45639" lon="5.92384">
        <ele>1855</ele>
        <time>2017-08-21T07:45:21Z</time>
      </trkpt>
      <trkpt lat="45.45643" lon="5.92383">
        <ele>1855</ele>
        <time>2017-08-21T07:45:27Z</time>
      </trkpt>
      <trkpt lat="45.45648" lon="5.92384">
        <ele>1856</ele>
        <time>2017-08-21T07:45:33Z</time>
      </trkpt>
      <trkpt lat="45.45654" lon="5.92386">
        <ele>1855</ele>
        <time>2017-08-21T07:45:37Z</time>
      </trkpt>
      <trkpt lat="45.45664" lon="5.92384">
        <ele>1855</ele>
        <time>2017-08-21T07:45:46Z</time>
      </trkpt>
      <trkpt lat="45.45679" lon="5.92379">
        <ele>1857</ele>
        <time>2017-08-21T07:46:02Z</time>
      </trkpt>
      <trkpt lat="45.45683" lon="5.92374">
        <ele>1858</ele>
        <time>2017-08-21T07:46:08Z</time>
      </trkpt>
      <trkpt lat="45.45701" lon="5.92367">
        <ele>1862</ele>
        <time>2017-08-21T07:46:27Z</time>
      </trkpt>
      <trkpt lat="45.45704" lon="5.92361">
        <ele>1864</ele>
        <time>2017-08-21T07:46:34Z</time>
      </trkpt>
      <trkpt lat="45.45708" lon="5.92359">
        <ele>1865</ele>
        <time>2017-08-21T07:46:38Z</time>
      </trkpt>
      <trkpt lat="45.45713" lon="5.92358">
        <ele>1867</ele>
        <time>2017-08-21T07:46:43Z</time>
      </trkpt>
      <trkpt lat="45.45717" lon="5.92354">
        <ele>1868</ele>
        <time>2017-08-21T07:46:50Z</time>
      </trkpt>
      <trkpt lat="45.45721" lon="5.92354">
        <ele>1870</ele>
        <time>2017-08-21T07:46:56Z</time>
      </trkpt>
      <trkpt lat="45.45724" lon="5.92349">
        <ele>1873</ele>
        <time>2017-08-21T07:47:04Z</time>
      </trkpt>
      <trkpt lat="45.45729" lon="5.92349">
        <ele>1874</ele>
        <time>2017-08-21T07:47:12Z</time>
      </trkpt>
      <trkpt lat="45.45734" lon="5.92351">
        <ele>1877</ele>
        <time>2017-08-21T07:47:24Z</time>
      </trkpt>
      <trkpt lat="45.45738" lon="5.92353">
        <ele>1878</ele>
        <time>2017-08-21T07:47:28Z</time>
      </trkpt>
      <trkpt lat="45.45741" lon="5.92347">
        <ele>1880</ele>
        <time>2017-08-21T07:47:36Z</time>
      </trkpt>
      <trkpt lat="45.45745" lon="5.92345">
        <ele>1881</ele>
        <time>2017-08-21T07:47:39Z</time>
      </trkpt>
      <trkpt lat="45.4575" lon="5.92347">
        <ele>1882</ele>
        <time>2017-08-21T07:47:46Z</time>
      </trkpt>
      <trkpt lat="45.4576" lon="5.92345">
        <ele>1884</ele>
        <time>2017-08-21T07:47:58Z</time>
      </trkpt>
      <trkpt lat="45.45764" lon="5.92347">
        <ele>1885</ele>
        <time>2017-08-21T07:48:02Z</time>
      </trkpt>
      <trkpt lat="45.45769" lon="5.92352">
        <ele>1884</ele>
        <time>2017-08-21T07:48:06Z</time>
      </trkpt>
      <trkpt lat="45.45781" lon="5.92358">
        <ele>1884</ele>
        <time>2017-08-21T07:48:12Z</time>
      </trkpt>
      <trkpt lat="45.45809" lon="5.92362">
        <ele>1880</ele>
        <time>2017-08-21T07:48:23Z</time>
      </trkpt>
      <trkpt lat="45.45813" lon="5.92367">
        <ele>1880</ele>
        <time>2017-08-21T07:48:26Z</time>
      </trkpt>
      <trkpt lat="45.45821" lon="5.92382">
        <ele>1881</ele>
        <time>2017-08-21T07:48:33Z</time>
      </trkpt>
      <trkpt lat="45.45837" lon="5.92398">
        <ele>1881</ele>
        <time>2017-08-21T07:48:39Z</time>
      </trkpt>
      <trkpt lat="45.45864" lon="5.92419">
        <ele>1882</ele>
        <time>2017-08-21T07:48:49Z</time>
      </trkpt>
      <trkpt lat="45.4587" lon="5.92422">
        <ele>1882</ele>
        <time>2017-08-21T07:48:52Z</time>
      </trkpt>
      <trkpt lat="45.45877" lon="5.92425">
        <ele>1882</ele>
        <time>2017-08-21T07:48:58Z</time>
      </trkpt>
      <trkpt lat="45.45881" lon="5.92426">
        <ele>1883</ele>
        <time>2017-08-21T07:49:01Z</time>
      </trkpt>
      <trkpt lat="45.45885" lon="5.9243">
        <ele>1884</ele>
        <time>2017-08-21T07:49:05Z</time>
      </trkpt>
      <trkpt lat="45.4589" lon="5.92429">
        <ele>1886</ele>
        <time>2017-08-21T07:49:10Z</time>
      </trkpt>
      <trkpt lat="45.45901" lon="5.9243">
        <ele>1889</ele>
        <time>2017-08-21T07:49:18Z</time>
      </trkpt>
      <trkpt lat="45.45916" lon="5.92442">
        <ele>1890</ele>
        <time>2017-08-21T07:49:30Z</time>
      </trkpt>
      <trkpt lat="45.4592" lon="5.92446">
        <ele>1892</ele>
        <time>2017-08-21T07:49:35Z</time>
      </trkpt>
      <trkpt lat="45.45922" lon="5.92452">
        <ele>1893</ele>
        <time>2017-08-21T07:49:40Z</time>
      </trkpt>
      <trkpt lat="45.45926" lon="5.92457">
        <ele>1894</ele>
        <time>2017-08-21T07:49:46Z</time>
      </trkpt>
      <trkpt lat="45.45936" lon="5.92463">
        <ele>1896</ele>
        <time>2017-08-21T07:49:54Z</time>
      </trkpt>
      <trkpt lat="45.45943" lon="5.92464">
        <ele>1897</ele>
        <time>2017-08-21T07:49:57Z</time>
      </trkpt>
      <trkpt lat="45.45947" lon="5.92464">
        <ele>1896</ele>
        <time>2017-08-21T07:49:59Z</time>
      </trkpt>
      <trkpt lat="45.45953" lon="5.92469">
        <ele>1896</ele>
        <time>2017-08-21T07:50:01Z</time>
      </trkpt>
      <trkpt lat="45.45958" lon="5.92474">
        <ele>1895</ele>
        <time>2017-08-21T07:50:03Z</time>
      </trkpt>
      <trkpt lat="45.46007" lon="5.92469">
        <ele>1893</ele>
        <time>2017-08-21T07:50:19Z</time>
      </trkpt>
      <trkpt lat="45.46037" lon="5.92477">
        <ele>1893</ele>
        <time>2017-08-21T07:50:29Z</time>
      </trkpt>
      <trkpt lat="45.46044" lon="5.92483">
        <ele>1893</ele>
        <time>2017-08-21T07:50:35Z</time>
      </trkpt>
      <trkpt lat="45.46044" lon="5.92491">
        <ele>1893</ele>
        <time>2017-08-21T07:50:39Z</time>
      </trkpt>
      <trkpt lat="45.46045" lon="5.92499">
        <ele>1894</ele>
        <time>2017-08-21T07:50:43Z</time>
      </trkpt>
      <trkpt lat="45.46049" lon="5.92506">
        <ele>1894</ele>
        <time>2017-08-21T07:50:46Z</time>
      </trkpt>
      <trkpt lat="45.46055" lon="5.92508">
        <ele>1893</ele>
        <time>2017-08-21T07:50:48Z</time>
      </trkpt>
      <trkpt lat="45.46064" lon="5.92503">
        <ele>1893</ele>
        <time>2017-08-21T07:50:52Z</time>
      </trkpt>
      <trkpt lat="45.46068" lon="5.92497">
        <ele>1893</ele>
        <time>2017-08-21T07:50:55Z</time>
      </trkpt>
      <trkpt lat="45.46071" lon="5.9249">
        <ele>1892</ele>
        <time>2017-08-21T07:50:58Z</time>
      </trkpt>
      <trkpt lat="45.46076" lon="5.92485">
        <ele>1891</ele>
        <time>2017-08-21T07:51:01Z</time>
      </trkpt>
      <trkpt lat="45.4608" lon="5.92481">
        <ele>1890</ele>
        <time>2017-08-21T07:51:04Z</time>
      </trkpt>
      <trkpt lat="45.46083" lon="5.92474">
        <ele>1890</ele>
        <time>2017-08-21T07:51:07Z</time>
      </trkpt>
      <trkpt lat="45.46091" lon="5.92466">
        <ele>1890</ele>
        <time>2017-08-21T07:51:13Z</time>
      </trkpt>
      <trkpt lat="45.46116" lon="5.92455">
        <ele>1893</ele>
        <time>2017-08-21T07:51:30Z</time>
      </trkpt>
      <trkpt lat="45.46158" lon="5.92469">
        <ele>1897</ele>
        <time>2017-08-21T07:51:49Z</time>
      </trkpt>
      <trkpt lat="45.4617" lon="5.92471">
        <ele>1897</ele>
        <time>2017-08-21T07:51:54Z</time>
      </trkpt>
      <trkpt lat="45.4618" lon="5.92471">
        <ele>1897</ele>
        <time>2017-08-21T07:51:58Z</time>
      </trkpt>
      <trkpt lat="45.46252" lon="5.9248">
        <ele>1894</ele>
        <time>2017-08-21T07:52:22Z</time>
      </trkpt>
      <trkpt lat="45.46257" lon="5.92483">
        <ele>1894</ele>
        <time>2017-08-21T07:52:24Z</time>
      </trkpt>
      <trkpt lat="45.46301" lon="5.92508">
        <ele>1896</ele>
        <time>2017-08-21T07:52:43Z</time>
      </trkpt>
      <trkpt lat="45.46306" lon="5.92508">
        <ele>1896</ele>
        <time>2017-08-21T07:52:45Z</time>
      </trkpt>
      <trkpt lat="45.46312" lon="5.92509">
        <ele>1896</ele>
        <time>2017-08-21T07:52:48Z</time>
      </trkpt>
      <trkpt lat="45.46326" lon="5.92519">
        <ele>1897</ele>
        <time>2017-08-21T07:52:59Z</time>
      </trkpt>
      <trkpt lat="45.46332" lon="5.92522">
        <ele>1897</ele>
        <time>2017-08-21T07:53:03Z</time>
      </trkpt>
      <trkpt lat="45.46344" lon="5.92538">
        <ele>1899</ele>
        <time>2017-08-21T07:53:15Z</time>
      </trkpt>
      <trkpt lat="45.46348" lon="5.92541">
        <ele>1900</ele>
        <time>2017-08-21T07:53:18Z</time>
      </trkpt>
      <trkpt lat="45.46352" lon="5.92545">
        <ele>1900</ele>
        <time>2017-08-21T07:53:21Z</time>
      </trkpt>
      <trkpt lat="45.46362" lon="5.92561">
        <ele>1902</ele>
        <time>2017-08-21T07:53:31Z</time>
      </trkpt>
      <trkpt lat="45.46375" lon="5.92572">
        <ele>1904</ele>
        <time>2017-08-21T07:53:43Z</time>
      </trkpt>
      <trkpt lat="45.46399" lon="5.92568">
        <ele>1910</ele>
        <time>2017-08-21T07:54:05Z</time>
      </trkpt>
      <trkpt lat="45.46404" lon="5.92569">
        <ele>1913</ele>
        <time>2017-08-21T07:54:12Z</time>
      </trkpt>
      <trkpt lat="45.46409" lon="5.92569">
        <ele>1915</ele>
        <time>2017-08-21T07:54:18Z</time>
      </trkpt>
      <trkpt lat="45.4641" lon="5.92562">
        <ele>1916</ele>
        <time>2017-08-21T07:54:23Z</time>
      </trkpt>
      <trkpt lat="45.4641" lon="5.92556">
        <ele>1917</ele>
        <time>2017-08-21T07:54:27Z</time>
      </trkpt>
      <trkpt lat="45.46412" lon="5.92549">
        <ele>1919</ele>
        <time>2017-08-21T07:54:46Z</time>
      </trkpt>
      <trkpt lat="45.46411" lon="5.92541">
        <ele>1920</ele>
        <time>2017-08-21T07:54:52Z</time>
      </trkpt>
      <trkpt lat="45.46414" lon="5.92536">
        <ele>1920</ele>
        <time>2017-08-21T07:54:57Z</time>
      </trkpt>
      <trkpt lat="45.46424" lon="5.92539">
        <ele>1923</ele>
        <time>2017-08-21T07:55:06Z</time>
      </trkpt>
      <trkpt lat="45.46429" lon="5.92537">
        <ele>1924</ele>
        <time>2017-08-21T07:55:10Z</time>
      </trkpt>
      <trkpt lat="45.46433" lon="5.92534">
        <ele>1925</ele>
        <time>2017-08-21T07:55:14Z</time>
      </trkpt>
      <trkpt lat="45.46447" lon="5.92527">
        <ele>1929</ele>
        <time>2017-08-21T07:55:29Z</time>
      </trkpt>
      <trkpt lat="45.46462" lon="5.92507">
        <ele>1934</ele>
        <time>2017-08-21T07:55:56Z</time>
      </trkpt>
      <trkpt lat="45.46464" lon="5.92505">
        <ele>1934</ele>
        <time>2017-08-21T07:56:24Z</time>
      </trkpt>
      <trkpt lat="45.4647" lon="5.92511">
        <ele>1934</ele>
        <time>2017-08-21T08:03:15Z</time>
      </trkpt>
      <trkpt lat="45.4647" lon="5.92505">
        <ele>1935</ele>
        <time>2017-08-21T08:05:25Z</time>
      </trkpt>
      <trkpt lat="45.46474" lon="5.92508">
        <ele>1936</ele>
        <time>2017-08-21T08:07:10Z</time>
      </trkpt>
      <trkpt lat="45.46474" lon="5.92507">
        <ele>1936</ele>
        <time>2017-08-21T08:08:54Z</time>
      </trkpt>
      <trkpt lat="45.46466" lon="5.92504">
        <ele>1936</ele>
        <time>2017-08-21T08:09:13Z</time>
      </trkpt>
      <trkpt lat="45.46465" lon="5.92505">
        <ele>1936</ele>
        <time>2017-08-21T08:10:08Z</time>
      </trkpt>
      <trkpt lat="45.4647" lon="5.92513">
        <ele>1935</ele>
        <time>2017-08-21T08:17:02Z</time>
      </trkpt>
      <trkpt lat="45.46473" lon="5.92519">
        <ele>1934</ele>
        <time>2017-08-21T08:17:05Z</time>
      </trkpt>
      <trkpt lat="45.46475" lon="5.92526">
        <ele>1933</ele>
        <time>2017-08-21T08:17:09Z</time>
      </trkpt>
      <trkpt lat="45.46474" lon="5.92533">
        <ele>1932</ele>
        <time>2017-08-21T08:17:12Z</time>
      </trkpt>
      <trkpt lat="45.46471" lon="5.92533">
        <ele>1929</ele>
        <time>2017-08-21T08:17:57Z</time>
      </trkpt>
      <trkpt lat="45.46468" lon="5.92528">
        <ele>1930</ele>
        <time>2017-08-21T08:18:01Z</time>
      </trkpt>
      <trkpt lat="45.46469" lon="5.9252">
        <ele>1931</ele>
        <time>2017-08-21T08:18:04Z</time>
      </trkpt>
      <trkpt lat="45.46474" lon="5.92508">
        <ele>1934</ele>
        <time>2017-08-21T08:18:13Z</time>
      </trkpt>
      <trkpt lat="45.46479" lon="5.92506">
        <ele>1934</ele>
        <time>2017-08-21T08:18:19Z</time>
      </trkpt>
      <trkpt lat="45.46486" lon="5.92504">
        <ele>1934</ele>
        <time>2017-08-21T08:18:30Z</time>
      </trkpt>
      <trkpt lat="45.46496" lon="5.92502">
        <ele>1934</ele>
        <time>2017-08-21T08:18:38Z</time>
      </trkpt>
      <trkpt lat="45.46501" lon="5.92502">
        <ele>1933</ele>
        <time>2017-08-21T08:18:43Z</time>
      </trkpt>
      <trkpt lat="45.46506" lon="5.925">
        <ele>1932</ele>
        <time>2017-08-21T08:18:48Z</time>
      </trkpt>
      <trkpt lat="45.4651" lon="5.92501">
        <ele>1931</ele>
        <time>2017-08-21T08:18:52Z</time>
      </trkpt>
      <trkpt lat="45.46516" lon="5.92504">
        <ele>1930</ele>
        <time>2017-08-21T08:18:56Z</time>
      </trkpt>
      <trkpt lat="45.46525" lon="5.92504">
        <ele>1928</ele>
        <time>2017-08-21T08:19:05Z</time>
      </trkpt>
      <trkpt lat="45.4653" lon="5.925">
        <ele>1927</ele>
        <time>2017-08-21T08:19:09Z</time>
      </trkpt>
      <trkpt lat="45.46535" lon="5.925">
        <ele>1926</ele>
        <time>2017-08-21T08:19:12Z</time>
      </trkpt>
      <trkpt lat="45.46545" lon="5.92502">
        <ele>1924</ele>
        <time>2017-08-21T08:19:19Z</time>
      </trkpt>
      <trkpt lat="45.46549" lon="5.92505">
        <ele>1924</ele>
        <time>2017-08-21T08:19:22Z</time>
      </trkpt>
      <trkpt lat="45.46558" lon="5.92508">
        <ele>1923</ele>
        <time>2017-08-21T08:19:28Z</time>
      </trkpt>
      <trkpt lat="45.46572" lon="5.92508">
        <ele>1923</ele>
        <time>2017-08-21T08:19:37Z</time>
      </trkpt>
      <trkpt lat="45.46598" lon="5.92512">
        <ele>1921</ele>
        <time>2017-08-21T08:19:56Z</time>
      </trkpt>
      <trkpt lat="45.46604" lon="5.92513">
        <ele>1920</ele>
        <time>2017-08-21T08:20:00Z</time>
      </trkpt>
      <trkpt lat="45.46623" lon="5.92512">
        <ele>1918</ele>
        <time>2017-08-21T08:20:13Z</time>
      </trkpt>
      <trkpt lat="45.46633" lon="5.9251">
        <ele>1916</ele>
        <time>2017-08-21T08:20:23Z</time>
      </trkpt>
      <trkpt lat="45.4664" lon="5.92501">
        <ele>1914</ele>
        <time>2017-08-21T08:20:31Z</time>
      </trkpt>
      <trkpt lat="45.46644" lon="5.925">
        <ele>1913</ele>
        <time>2017-08-21T08:20:36Z</time>
      </trkpt>
      <trkpt lat="45.4665" lon="5.92498">
        <ele>1911</ele>
        <time>2017-08-21T08:20:40Z</time>
      </trkpt>
      <trkpt lat="45.46659" lon="5.92504">
        <ele>1908</ele>
        <time>2017-08-21T08:20:47Z</time>
      </trkpt>
      <trkpt lat="45.46668" lon="5.925">
        <ele>1907</ele>
        <time>2017-08-21T08:20:53Z</time>
      </trkpt>
      <trkpt lat="45.46673" lon="5.92502">
        <ele>1907</ele>
        <time>2017-08-21T08:20:56Z</time>
      </trkpt>
      <trkpt lat="45.46677" lon="5.92503">
        <ele>1907</ele>
        <time>2017-08-21T08:20:59Z</time>
      </trkpt>
      <trkpt lat="45.46699" lon="5.92497">
        <ele>1906</ele>
        <time>2017-08-21T08:21:14Z</time>
      </trkpt>
      <trkpt lat="45.46703" lon="5.92496">
        <ele>1906</ele>
        <time>2017-08-21T08:21:17Z</time>
      </trkpt>
      <trkpt lat="45.46708" lon="5.92492">
        <ele>1907</ele>
        <time>2017-08-21T08:21:21Z</time>
      </trkpt>
      <trkpt lat="45.46727" lon="5.9248">
        <ele>1906</ele>
        <time>2017-08-21T08:21:35Z</time>
      </trkpt>
      <trkpt lat="45.46736" lon="5.92471">
        <ele>1905</ele>
        <time>2017-08-21T08:21:42Z</time>
      </trkpt>
      <trkpt lat="45.46748" lon="5.9244">
        <ele>1903</ele>
        <time>2017-08-21T08:21:59Z</time>
      </trkpt>
      <trkpt lat="45.46747" lon="5.92451">
        <ele>1904</ele>
        <time>2017-08-21T08:24:52Z</time>
      </trkpt>
      <trkpt lat="45.46742" lon="5.92459">
        <ele>1904</ele>
        <time>2017-08-21T08:27:12Z</time>
      </trkpt>
      <trkpt lat="45.46739" lon="5.92464">
        <ele>1904</ele>
        <time>2017-08-21T08:27:18Z</time>
      </trkpt>
      <trkpt lat="45.46736" lon="5.9247">
        <ele>1904</ele>
        <time>2017-08-21T08:27:23Z</time>
      </trkpt>
      <trkpt lat="45.46735" lon="5.92476">
        <ele>1904</ele>
        <time>2017-08-21T08:27:27Z</time>
      </trkpt>
      <trkpt lat="45.46727" lon="5.92484">
        <ele>1905</ele>
        <time>2017-08-21T08:27:36Z</time>
      </trkpt>
      <trkpt lat="45.46724" lon="5.92505">
        <ele>1907</ele>
        <time>2017-08-21T08:27:51Z</time>
      </trkpt>
      <trkpt lat="45.46726" lon="5.92527">
        <ele>1909</ele>
        <time>2017-08-21T08:28:03Z</time>
      </trkpt>
      <trkpt lat="45.46727" lon="5.92533">
        <ele>1909</ele>
        <time>2017-08-21T08:28:06Z</time>
      </trkpt>
      <trkpt lat="45.46747" lon="5.92577">
        <ele>1907</ele>
        <time>2017-08-21T08:28:33Z</time>
      </trkpt>
      <trkpt lat="45.46747" lon="5.92584">
        <ele>1907</ele>
        <time>2017-08-21T08:28:41Z</time>
      </trkpt>
      <trkpt lat="45.4675" lon="5.92591">
        <ele>1908</ele>
        <time>2017-08-21T08:28:45Z</time>
      </trkpt>
      <trkpt lat="45.46757" lon="5.92603">
        <ele>1908</ele>
        <time>2017-08-21T08:28:52Z</time>
      </trkpt>
      <trkpt lat="45.46761" lon="5.92616">
        <ele>1908</ele>
        <time>2017-08-21T08:28:59Z</time>
      </trkpt>
      <trkpt lat="45.46763" lon="5.92622">
        <ele>1908</ele>
        <time>2017-08-21T08:29:03Z</time>
      </trkpt>
      <trkpt lat="45.46763" lon="5.92681">
        <ele>1900</ele>
        <time>2017-08-21T08:29:36Z</time>
      </trkpt>
      <trkpt lat="45.4676" lon="5.92687">
        <ele>1899</ele>
        <time>2017-08-21T08:29:41Z</time>
      </trkpt>
      <trkpt lat="45.46764" lon="5.9269">
        <ele>1899</ele>
        <time>2017-08-21T08:29:48Z</time>
      </trkpt>
      <trkpt lat="45.46763" lon="5.92705">
        <ele>1896</ele>
        <time>2017-08-21T08:29:57Z</time>
      </trkpt>
      <trkpt lat="45.46763" lon="5.92745">
        <ele>1887</ele>
        <time>2017-08-21T08:30:33Z</time>
      </trkpt>
      <trkpt lat="45.46757" lon="5.92775">
        <ele>1879</ele>
        <time>2017-08-21T08:30:59Z</time>
      </trkpt>
      <trkpt lat="45.46758" lon="5.92781">
        <ele>1878</ele>
        <time>2017-08-21T08:31:03Z</time>
      </trkpt>
      <trkpt lat="45.46762" lon="5.92785">
        <ele>1877</ele>
        <time>2017-08-21T08:31:07Z</time>
      </trkpt>
      <trkpt lat="45.46767" lon="5.92788">
        <ele>1876</ele>
        <time>2017-08-21T08:31:11Z</time>
      </trkpt>
      <trkpt lat="45.46769" lon="5.92794">
        <ele>1875</ele>
        <time>2017-08-21T08:31:15Z</time>
      </trkpt>
      <trkpt lat="45.46769" lon="5.92801">
        <ele>1874</ele>
        <time>2017-08-21T08:31:19Z</time>
      </trkpt>
      <trkpt lat="45.46771" lon="5.92808">
        <ele>1873</ele>
        <time>2017-08-21T08:31:24Z</time>
      </trkpt>
      <trkpt lat="45.4677" lon="5.92815">
        <ele>1872</ele>
        <time>2017-08-21T08:31:31Z</time>
      </trkpt>
      <trkpt lat="45.46775" lon="5.92828">
        <ele>1870</ele>
        <time>2017-08-21T08:31:41Z</time>
      </trkpt>
      <trkpt lat="45.4678" lon="5.9283">
        <ele>1868</ele>
        <time>2017-08-21T08:31:46Z</time>
      </trkpt>
      <trkpt lat="45.46786" lon="5.9284">
        <ele>1866</ele>
        <time>2017-08-21T08:31:57Z</time>
      </trkpt>
      <trkpt lat="45.46791" lon="5.9285">
        <ele>1864</ele>
        <time>2017-08-21T08:33:41Z</time>
      </trkpt>
      <trkpt lat="45.46793" lon="5.92863">
        <ele>1862</ele>
        <time>2017-08-21T08:33:50Z</time>
      </trkpt>
      <trkpt lat="45.4679" lon="5.92877">
        <ele>1860</ele>
        <time>2017-08-21T08:34:04Z</time>
      </trkpt>
      <trkpt lat="45.46791" lon="5.92883">
        <ele>1859</ele>
        <time>2017-08-21T08:34:10Z</time>
      </trkpt>
      <trkpt lat="45.46795" lon="5.92888">
        <ele>1858</ele>
        <time>2017-08-21T08:34:15Z</time>
      </trkpt>
      <trkpt lat="45.46799" lon="5.92908">
        <ele>1855</ele>
        <time>2017-08-21T08:34:30Z</time>
      </trkpt>
      <trkpt lat="45.46808" lon="5.92926">
        <ele>1853</ele>
        <time>2017-08-21T08:34:44Z</time>
      </trkpt>
      <trkpt lat="45.46807" lon="5.92933">
        <ele>1853</ele>
        <time>2017-08-21T08:34:49Z</time>
      </trkpt>
      <trkpt lat="45.46795" lon="5.92958">
        <ele>1848</ele>
        <time>2017-08-21T08:35:07Z</time>
      </trkpt>
      <trkpt lat="45.46791" lon="5.92961">
        <ele>1848</ele>
        <time>2017-08-21T08:35:11Z</time>
      </trkpt>
      <trkpt lat="45.46786" lon="5.92961">
        <ele>1847</ele>
        <time>2017-08-21T08:35:15Z</time>
      </trkpt>
      <trkpt lat="45.46783" lon="5.92967">
        <ele>1847</ele>
        <time>2017-08-21T08:35:21Z</time>
      </trkpt>
      <trkpt lat="45.46782" lon="5.92974">
        <ele>1846</ele>
        <time>2017-08-21T08:35:26Z</time>
      </trkpt>
      <trkpt lat="45.46779" lon="5.9298">
        <ele>1845</ele>
        <time>2017-08-21T08:35:32Z</time>
      </trkpt>
      <trkpt lat="45.46775" lon="5.92983">
        <ele>1844</ele>
        <time>2017-08-21T08:35:35Z</time>
      </trkpt>
      <trkpt lat="45.4677" lon="5.92995">
        <ele>1843</ele>
        <time>2017-08-21T08:35:43Z</time>
      </trkpt>
      <trkpt lat="45.46766" lon="5.93">
        <ele>1842</ele>
        <time>2017-08-21T08:35:47Z</time>
      </trkpt>
      <trkpt lat="45.46762" lon="5.93004">
        <ele>1841</ele>
        <time>2017-08-21T08:35:51Z</time>
      </trkpt>
      <trkpt lat="45.46758" lon="5.93008">
        <ele>1840</ele>
        <time>2017-08-21T08:35:54Z</time>
      </trkpt>
      <trkpt lat="45.4675" lon="5.93043">
        <ele>1836</ele>
        <time>2017-08-21T08:36:16Z</time>
      </trkpt>
      <trkpt lat="45.46736" lon="5.93067">
        <ele>1832</ele>
        <time>2017-08-21T08:36:35Z</time>
      </trkpt>
      <trkpt lat="45.46731" lon="5.93067">
        <ele>1832</ele>
        <time>2017-08-21T08:36:40Z</time>
      </trkpt>
      <trkpt lat="45.46726" lon="5.93064">
        <ele>1832</ele>
        <time>2017-08-21T08:36:45Z</time>
      </trkpt>
      <trkpt lat="45.46722" lon="5.9306">
        <ele>1831</ele>
        <time>2017-08-21T08:36:49Z</time>
      </trkpt>
      <trkpt lat="45.46713" lon="5.93066">
        <ele>1830</ele>
        <time>2017-08-21T08:36:59Z</time>
      </trkpt>
      <trkpt lat="45.46703" lon="5.93063">
        <ele>1828</ele>
        <time>2017-08-21T08:37:11Z</time>
      </trkpt>
      <trkpt lat="45.46698" lon="5.93065">
        <ele>1827</ele>
        <time>2017-08-21T08:37:16Z</time>
      </trkpt>
      <trkpt lat="45.46692" lon="5.93075">
        <ele>1826</ele>
        <time>2017-08-21T08:37:26Z</time>
      </trkpt>
      <trkpt lat="45.46688" lon="5.93078">
        <ele>1825</ele>
        <time>2017-08-21T08:37:30Z</time>
      </trkpt>
      <trkpt lat="45.46682" lon="5.93078">
        <ele>1824</ele>
        <time>2017-08-21T08:37:34Z</time>
      </trkpt>
      <trkpt lat="45.46677" lon="5.9308">
        <ele>1824</ele>
        <time>2017-08-21T08:37:38Z</time>
      </trkpt>
      <trkpt lat="45.4667" lon="5.9309">
        <ele>1823</ele>
        <time>2017-08-21T08:37:46Z</time>
      </trkpt>
      <trkpt lat="45.46656" lon="5.9308">
        <ele>1822</ele>
        <time>2017-08-21T08:37:58Z</time>
      </trkpt>
      <trkpt lat="45.46651" lon="5.93079">
        <ele>1822</ele>
        <time>2017-08-21T08:38:02Z</time>
      </trkpt>
      <trkpt lat="45.46641" lon="5.93084">
        <ele>1820</ele>
        <time>2017-08-21T08:38:12Z</time>
      </trkpt>
      <trkpt lat="45.46637" lon="5.93085">
        <ele>1820</ele>
        <time>2017-08-21T08:38:17Z</time>
      </trkpt>
      <trkpt lat="45.46629" lon="5.93094">
        <ele>1820</ele>
        <time>2017-08-21T08:38:26Z</time>
      </trkpt>
      <trkpt lat="45.4662" lon="5.931">
        <ele>1820</ele>
        <time>2017-08-21T08:38:36Z</time>
      </trkpt>
      <trkpt lat="45.46615" lon="5.93105">
        <ele>1820</ele>
        <time>2017-08-21T08:38:42Z</time>
      </trkpt>
      <trkpt lat="45.46611" lon="5.9311">
        <ele>1819</ele>
        <time>2017-08-21T08:38:46Z</time>
      </trkpt>
      <trkpt lat="45.46606" lon="5.93111">
        <ele>1818</ele>
        <time>2017-08-21T08:38:52Z</time>
      </trkpt>
      <trkpt lat="45.46597" lon="5.93111">
        <ele>1815</ele>
        <time>2017-08-21T08:39:02Z</time>
      </trkpt>
      <trkpt lat="45.46588" lon="5.93105">
        <ele>1813</ele>
        <time>2017-08-21T08:39:12Z</time>
      </trkpt>
      <trkpt lat="45.46582" lon="5.93103">
        <ele>1811</ele>
        <time>2017-08-21T08:39:17Z</time>
      </trkpt>
      <trkpt lat="45.46578" lon="5.931">
        <ele>1811</ele>
        <time>2017-08-21T08:39:22Z</time>
      </trkpt>
      <trkpt lat="45.46573" lon="5.93098">
        <ele>1810</ele>
        <time>2017-08-21T08:39:26Z</time>
      </trkpt>
      <trkpt lat="45.46558" lon="5.93105">
        <ele>1809</ele>
        <time>2017-08-21T08:39:41Z</time>
      </trkpt>
      <trkpt lat="45.46553" lon="5.93103">
        <ele>1808</ele>
        <time>2017-08-21T08:39:45Z</time>
      </trkpt>
      <trkpt lat="45.46548" lon="5.93106">
        <ele>1808</ele>
        <time>2017-08-21T08:39:51Z</time>
      </trkpt>
      <trkpt lat="45.46543" lon="5.93106">
        <ele>1807</ele>
        <time>2017-08-21T08:39:56Z</time>
      </trkpt>
      <trkpt lat="45.46538" lon="5.93109">
        <ele>1807</ele>
        <time>2017-08-21T08:40:01Z</time>
      </trkpt>
      <trkpt lat="45.46538" lon="5.93116">
        <ele>1806</ele>
        <time>2017-08-21T08:40:05Z</time>
      </trkpt>
      <trkpt lat="45.46536" lon="5.93122">
        <ele>1806</ele>
        <time>2017-08-21T08:40:10Z</time>
      </trkpt>
      <trkpt lat="45.46531" lon="5.93125">
        <ele>1806</ele>
        <time>2017-08-21T08:40:17Z</time>
      </trkpt>
      <trkpt lat="45.46528" lon="5.9313">
        <ele>1807</ele>
        <time>2017-08-21T08:40:21Z</time>
      </trkpt>
      <trkpt lat="45.46519" lon="5.93131">
        <ele>1807</ele>
        <time>2017-08-21T08:40:29Z</time>
      </trkpt>
      <trkpt lat="45.46511" lon="5.93141">
        <ele>1806</ele>
        <time>2017-08-21T08:40:39Z</time>
      </trkpt>
      <trkpt lat="45.46491" lon="5.93135">
        <ele>1802</ele>
        <time>2017-08-21T08:40:55Z</time>
      </trkpt>
      <trkpt lat="45.46476" lon="5.93137">
        <ele>1801</ele>
        <time>2017-08-21T08:41:08Z</time>
      </trkpt>
      <trkpt lat="45.46465" lon="5.9315">
        <ele>1800</ele>
        <time>2017-08-21T08:41:22Z</time>
      </trkpt>
      <trkpt lat="45.4646" lon="5.93153">
        <ele>1800</ele>
        <time>2017-08-21T08:41:28Z</time>
      </trkpt>
      <trkpt lat="45.46456" lon="5.93159">
        <ele>1799</ele>
        <time>2017-08-21T08:41:32Z</time>
      </trkpt>
      <trkpt lat="45.46452" lon="5.93161">
        <ele>1799</ele>
        <time>2017-08-21T08:41:36Z</time>
      </trkpt>
      <trkpt lat="45.46449" lon="5.93166">
        <ele>1799</ele>
        <time>2017-08-21T08:41:41Z</time>
      </trkpt>
      <trkpt lat="45.46426" lon="5.93194">
        <ele>1798</ele>
        <time>2017-08-21T08:42:07Z</time>
      </trkpt>
      <trkpt lat="45.46422" lon="5.93197">
        <ele>1798</ele>
        <time>2017-08-21T08:42:11Z</time>
      </trkpt>
      <trkpt lat="45.46418" lon="5.93202">
        <ele>1797</ele>
        <time>2017-08-21T08:42:16Z</time>
      </trkpt>
      <trkpt lat="45.46415" lon="5.93208">
        <ele>1797</ele>
        <time>2017-08-21T08:42:20Z</time>
      </trkpt>
      <trkpt lat="45.46413" lon="5.93214">
        <ele>1796</ele>
        <time>2017-08-21T08:42:25Z</time>
      </trkpt>
      <trkpt lat="45.46409" lon="5.9322">
        <ele>1796</ele>
        <time>2017-08-21T08:42:30Z</time>
      </trkpt>
      <trkpt lat="45.464" lon="5.93228">
        <ele>1795</ele>
        <time>2017-08-21T08:42:39Z</time>
      </trkpt>
      <trkpt lat="45.46398" lon="5.93234">
        <ele>1795</ele>
        <time>2017-08-21T08:42:43Z</time>
      </trkpt>
      <trkpt lat="45.46395" lon="5.9324">
        <ele>1795</ele>
        <time>2017-08-21T08:42:47Z</time>
      </trkpt>
      <trkpt lat="45.46392" lon="5.93245">
        <ele>1794</ele>
        <time>2017-08-21T08:42:51Z</time>
      </trkpt>
      <trkpt lat="45.46387" lon="5.93257">
        <ele>1793</ele>
        <time>2017-08-21T08:42:59Z</time>
      </trkpt>
      <trkpt lat="45.46381" lon="5.93269">
        <ele>1792</ele>
        <time>2017-08-21T08:43:09Z</time>
      </trkpt>
      <trkpt lat="45.46377" lon="5.93272">
        <ele>1791</ele>
        <time>2017-08-21T08:43:13Z</time>
      </trkpt>
      <trkpt lat="45.46374" lon="5.93277">
        <ele>1791</ele>
        <time>2017-08-21T08:43:17Z</time>
      </trkpt>
      <trkpt lat="45.4637" lon="5.93296">
        <ele>1789</ele>
        <time>2017-08-21T08:43:33Z</time>
      </trkpt>
      <trkpt lat="45.46367" lon="5.93302">
        <ele>1788</ele>
        <time>2017-08-21T08:43:38Z</time>
      </trkpt>
      <trkpt lat="45.46363" lon="5.93305">
        <ele>1788</ele>
        <time>2017-08-21T08:43:48Z</time>
      </trkpt>
      <trkpt lat="45.46358" lon="5.93304">
        <ele>1787</ele>
        <time>2017-08-21T08:43:54Z</time>
      </trkpt>
      <trkpt lat="45.46354" lon="5.93301">
        <ele>1786</ele>
        <time>2017-08-21T08:44:00Z</time>
      </trkpt>
      <trkpt lat="45.46349" lon="5.93298">
        <ele>1784</ele>
        <time>2017-08-21T08:44:05Z</time>
      </trkpt>
      <trkpt lat="45.46348" lon="5.93292">
        <ele>1783</ele>
        <time>2017-08-21T08:44:09Z</time>
      </trkpt>
      <trkpt lat="45.46345" lon="5.93285">
        <ele>1782</ele>
        <time>2017-08-21T08:44:16Z</time>
      </trkpt>
      <trkpt lat="45.46334" lon="5.93283">
        <ele>1777</ele>
        <time>2017-08-21T08:44:34Z</time>
      </trkpt>
      <trkpt lat="45.4633" lon="5.93279">
        <ele>1776</ele>
        <time>2017-08-21T08:44:38Z</time>
      </trkpt>
      <trkpt lat="45.46325" lon="5.93276">
        <ele>1775</ele>
        <time>2017-08-21T08:44:43Z</time>
      </trkpt>
      <trkpt lat="45.46315" lon="5.93274">
        <ele>1772</ele>
        <time>2017-08-21T08:44:56Z</time>
      </trkpt>
      <trkpt lat="45.46311" lon="5.9327">
        <ele>1771</ele>
        <time>2017-08-21T08:45:00Z</time>
      </trkpt>
      <trkpt lat="45.46304" lon="5.93262">
        <ele>1771</ele>
        <time>2017-08-21T08:45:08Z</time>
      </trkpt>
      <trkpt lat="45.463" lon="5.93257">
        <ele>1771</ele>
        <time>2017-08-21T08:45:12Z</time>
      </trkpt>
      <trkpt lat="45.46291" lon="5.93252">
        <ele>1772</ele>
        <time>2017-08-21T08:45:20Z</time>
      </trkpt>
      <trkpt lat="45.46284" lon="5.93242">
        <ele>1773</ele>
        <time>2017-08-21T08:45:29Z</time>
      </trkpt>
      <trkpt lat="45.4628" lon="5.93241">
        <ele>1773</ele>
        <time>2017-08-21T08:45:34Z</time>
      </trkpt>
      <trkpt lat="45.46276" lon="5.93239">
        <ele>1774</ele>
        <time>2017-08-21T08:45:39Z</time>
      </trkpt>
      <trkpt lat="45.46272" lon="5.93234">
        <ele>1774</ele>
        <time>2017-08-21T08:45:44Z</time>
      </trkpt>
      <trkpt lat="45.46268" lon="5.93231">
        <ele>1775</ele>
        <time>2017-08-21T08:45:49Z</time>
      </trkpt>
      <trkpt lat="45.46264" lon="5.93239">
        <ele>1774</ele>
        <time>2017-08-21T08:46:04Z</time>
      </trkpt>
      <trkpt lat="45.46254" lon="5.93258">
        <ele>1769</ele>
        <time>2017-08-21T08:46:25Z</time>
      </trkpt>
      <trkpt lat="45.46249" lon="5.93259">
        <ele>1768</ele>
        <time>2017-08-21T08:46:29Z</time>
      </trkpt>
      <trkpt lat="45.46244" lon="5.9326">
        <ele>1768</ele>
        <time>2017-08-21T08:46:35Z</time>
      </trkpt>
      <trkpt lat="45.46235" lon="5.93276">
        <ele>1760</ele>
        <time>2017-08-21T08:47:06Z</time>
      </trkpt>
      <trkpt lat="45.46235" lon="5.93287">
        <ele>1756</ele>
        <time>2017-08-21T08:47:21Z</time>
      </trkpt>
      <trkpt lat="45.4623" lon="5.93298">
        <ele>1752</ele>
        <time>2017-08-21T08:47:41Z</time>
      </trkpt>
      <trkpt lat="45.46233" lon="5.93305">
        <ele>1752</ele>
        <time>2017-08-21T08:47:48Z</time>
      </trkpt>
      <trkpt lat="45.46234" lon="5.93314">
        <ele>1749</ele>
        <time>2017-08-21T08:48:01Z</time>
      </trkpt>
      <trkpt lat="45.4623" lon="5.93319">
        <ele>1748</ele>
        <time>2017-08-21T08:48:09Z</time>
      </trkpt>
      <trkpt lat="45.46226" lon="5.9332">
        <ele>1746</ele>
        <time>2017-08-21T08:48:15Z</time>
      </trkpt>
      <trkpt lat="45.46221" lon="5.93317">
        <ele>1745</ele>
        <time>2017-08-21T08:48:22Z</time>
      </trkpt>
      <trkpt lat="45.46218" lon="5.93312">
        <ele>1743</ele>
        <time>2017-08-21T08:48:55Z</time>
      </trkpt>
      <trkpt lat="45.46212" lon="5.93312">
        <ele>1740</ele>
        <time>2017-08-21T08:49:29Z</time>
      </trkpt>
      <trkpt lat="45.46208" lon="5.93308">
        <ele>1738</ele>
        <time>2017-08-21T08:49:38Z</time>
      </trkpt>
      <trkpt lat="45.46204" lon="5.93303">
        <ele>1735</ele>
        <time>2017-08-21T08:49:45Z</time>
      </trkpt>
      <trkpt lat="45.46197" lon="5.93305">
        <ele>1731</ele>
        <time>2017-08-21T08:50:07Z</time>
      </trkpt>
      <trkpt lat="45.46188" lon="5.93314">
        <ele>1723</ele>
        <time>2017-08-21T08:50:35Z</time>
      </trkpt>
      <trkpt lat="45.46183" lon="5.93326">
        <ele>1718</ele>
        <time>2017-08-21T08:50:50Z</time>
      </trkpt>
      <trkpt lat="45.46187" lon="5.9333">
        <ele>1717</ele>
        <time>2017-08-21T08:50:56Z</time>
      </trkpt>
      <trkpt lat="45.46188" lon="5.93336">
        <ele>1715</ele>
        <time>2017-08-21T08:51:03Z</time>
      </trkpt>
      <trkpt lat="45.46193" lon="5.93341">
        <ele>1713</ele>
        <time>2017-08-21T08:51:12Z</time>
      </trkpt>
      <trkpt lat="45.46193" lon="5.93347">
        <ele>1711</ele>
        <time>2017-08-21T08:51:20Z</time>
      </trkpt>
      <trkpt lat="45.46191" lon="5.93353">
        <ele>1710</ele>
        <time>2017-08-21T08:51:29Z</time>
      </trkpt>
      <trkpt lat="45.46191" lon="5.9336">
        <ele>1708</ele>
        <time>2017-08-21T08:51:36Z</time>
      </trkpt>
      <trkpt lat="45.46189" lon="5.93366">
        <ele>1706</ele>
        <time>2017-08-21T08:51:49Z</time>
      </trkpt>
      <trkpt lat="45.46188" lon="5.93372">
        <ele>1703</ele>
        <time>2017-08-21T08:51:56Z</time>
      </trkpt>
      <trkpt lat="45.46184" lon="5.93381">
        <ele>1701</ele>
        <time>2017-08-21T08:52:09Z</time>
      </trkpt>
      <trkpt lat="45.46187" lon="5.9339">
        <ele>1697</ele>
        <time>2017-08-21T08:52:24Z</time>
      </trkpt>
      <trkpt lat="45.46191" lon="5.93394">
        <ele>1694</ele>
        <time>2017-08-21T08:52:30Z</time>
      </trkpt>
      <trkpt lat="45.4619" lon="5.93401">
        <ele>1693</ele>
        <time>2017-08-21T08:52:35Z</time>
      </trkpt>
      <trkpt lat="45.46186" lon="5.93404">
        <ele>1693</ele>
        <time>2017-08-21T08:52:41Z</time>
      </trkpt>
      <trkpt lat="45.46183" lon="5.93417">
        <ele>1690</ele>
        <time>2017-08-21T08:52:54Z</time>
      </trkpt>
      <trkpt lat="45.46186" lon="5.93426">
        <ele>1687</ele>
        <time>2017-08-21T08:54:06Z</time>
      </trkpt>
      <trkpt lat="45.46194" lon="5.93435">
        <ele>1685</ele>
        <time>2017-08-21T08:54:13Z</time>
      </trkpt>
      <trkpt lat="45.46197" lon="5.93441">
        <ele>1684</ele>
        <time>2017-08-21T08:54:18Z</time>
      </trkpt>
      <trkpt lat="45.46198" lon="5.93449">
        <ele>1683</ele>
        <time>2017-08-21T08:54:23Z</time>
      </trkpt>
      <trkpt lat="45.46201" lon="5.93455">
        <ele>1681</ele>
        <time>2017-08-21T08:54:29Z</time>
      </trkpt>
      <trkpt lat="45.46206" lon="5.93459">
        <ele>1679</ele>
        <time>2017-08-21T08:54:34Z</time>
      </trkpt>
      <trkpt lat="45.46209" lon="5.93464">
        <ele>1678</ele>
        <time>2017-08-21T08:54:39Z</time>
      </trkpt>
      <trkpt lat="45.46208" lon="5.93471">
        <ele>1677</ele>
        <time>2017-08-21T08:54:46Z</time>
      </trkpt>
      <trkpt lat="45.4621" lon="5.93484">
        <ele>1674</ele>
        <time>2017-08-21T08:54:56Z</time>
      </trkpt>
      <trkpt lat="45.46208" lon="5.93491">
        <ele>1672</ele>
        <time>2017-08-21T08:55:03Z</time>
      </trkpt>
      <trkpt lat="45.46211" lon="5.93497">
        <ele>1671</ele>
        <time>2017-08-21T08:55:10Z</time>
      </trkpt>
      <trkpt lat="45.46212" lon="5.93504">
        <ele>1669</ele>
        <time>2017-08-21T08:55:16Z</time>
      </trkpt>
      <trkpt lat="45.46211" lon="5.93511">
        <ele>1667</ele>
        <time>2017-08-21T08:55:22Z</time>
      </trkpt>
      <trkpt lat="45.46208" lon="5.93516">
        <ele>1665</ele>
        <time>2017-08-21T08:55:29Z</time>
      </trkpt>
      <trkpt lat="45.46213" lon="5.93519">
        <ele>1664</ele>
        <time>2017-08-21T08:55:36Z</time>
      </trkpt>
      <trkpt lat="45.46216" lon="5.93522">
        <ele>1663</ele>
        <time>2017-08-21T08:55:51Z</time>
      </trkpt>
      <trkpt lat="45.46215" lon="5.93529">
        <ele>1661</ele>
        <time>2017-08-21T08:56:06Z</time>
      </trkpt>
      <trkpt lat="45.46205" lon="5.93534">
        <ele>1659</ele>
        <time>2017-08-21T08:56:14Z</time>
      </trkpt>
      <trkpt lat="45.46211" lon="5.93532">
        <ele>1659</ele>
        <time>2017-08-21T08:56:20Z</time>
      </trkpt>
      <trkpt lat="45.46214" lon="5.93527">
        <ele>1659</ele>
        <time>2017-08-21T08:56:24Z</time>
      </trkpt>
      <trkpt lat="45.4622" lon="5.93527">
        <ele>1660</ele>
        <time>2017-08-21T08:56:31Z</time>
      </trkpt>
      <trkpt lat="45.46222" lon="5.93532">
        <ele>1659</ele>
        <time>2017-08-21T08:56:34Z</time>
      </trkpt>
      <trkpt lat="45.46224" lon="5.9354">
        <ele>1658</ele>
        <time>2017-08-21T08:56:38Z</time>
      </trkpt>
      <trkpt lat="45.46228" lon="5.93545">
        <ele>1658</ele>
        <time>2017-08-21T08:56:43Z</time>
      </trkpt>
      <trkpt lat="45.4623" lon="5.93551">
        <ele>1656</ele>
        <time>2017-08-21T08:56:49Z</time>
      </trkpt>
      <trkpt lat="45.46229" lon="5.93557">
        <ele>1655</ele>
        <time>2017-08-21T08:56:56Z</time>
      </trkpt>
      <trkpt lat="45.46238" lon="5.93587">
        <ele>1648</ele>
        <time>2017-08-21T08:57:28Z</time>
      </trkpt>
      <trkpt lat="45.46235" lon="5.93581">
        <ele>1647</ele>
        <time>2017-08-21T08:58:05Z</time>
      </trkpt>
      <trkpt lat="45.4623" lon="5.93582">
        <ele>1647</ele>
        <time>2017-08-21T08:58:19Z</time>
      </trkpt>
      <trkpt lat="45.46225" lon="5.93585">
        <ele>1649</ele>
        <time>2017-08-21T08:58:23Z</time>
      </trkpt>
      <trkpt lat="45.46212" lon="5.9358">
        <ele>1653</ele>
        <time>2017-08-21T08:58:40Z</time>
      </trkpt>
      <trkpt lat="45.46208" lon="5.93582">
        <ele>1654</ele>
        <time>2017-08-21T08:58:48Z</time>
      </trkpt>
      <trkpt lat="45.46203" lon="5.93586">
        <ele>1654</ele>
        <time>2017-08-21T08:59:00Z</time>
      </trkpt>
      <trkpt lat="45.462" lon="5.93592">
        <ele>1653</ele>
        <time>2017-08-21T08:59:04Z</time>
      </trkpt>
      <trkpt lat="45.46197" lon="5.93596">
        <ele>1652</ele>
        <time>2017-08-21T08:59:07Z</time>
      </trkpt>
      <trkpt lat="45.46182" lon="5.93602">
        <ele>1649</ele>
        <time>2017-08-21T08:59:21Z</time>
      </trkpt>
      <trkpt lat="45.46168" lon="5.93618">
        <ele>1647</ele>
        <time>2017-08-21T08:59:34Z</time>
      </trkpt>
      <trkpt lat="45.46167" lon="5.93625">
        <ele>1647</ele>
        <time>2017-08-21T08:59:39Z</time>
      </trkpt>
      <trkpt lat="45.46159" lon="5.93626">
        <ele>1646</ele>
        <time>2017-08-21T08:59:53Z</time>
      </trkpt>
      <trkpt lat="45.46153" lon="5.93623">
        <ele>1646</ele>
        <time>2017-08-21T09:00:07Z</time>
      </trkpt>
      <trkpt lat="45.46146" lon="5.93615">
        <ele>1647</ele>
        <time>2017-08-21T09:00:18Z</time>
      </trkpt>
      <trkpt lat="45.46143" lon="5.93601">
        <ele>1649</ele>
        <time>2017-08-21T09:00:28Z</time>
      </trkpt>
      <trkpt lat="45.46136" lon="5.936">
        <ele>1650</ele>
        <time>2017-08-21T09:00:36Z</time>
      </trkpt>
      <trkpt lat="45.46131" lon="5.93597">
        <ele>1650</ele>
        <time>2017-08-21T09:00:40Z</time>
      </trkpt>
      <trkpt lat="45.46128" lon="5.93592">
        <ele>1651</ele>
        <time>2017-08-21T09:00:45Z</time>
      </trkpt>
      <trkpt lat="45.46123" lon="5.93593">
        <ele>1651</ele>
        <time>2017-08-21T09:00:49Z</time>
      </trkpt>
      <trkpt lat="45.46124" lon="5.93586">
        <ele>1652</ele>
        <time>2017-08-21T09:00:55Z</time>
      </trkpt>
      <trkpt lat="45.46123" lon="5.93579">
        <ele>1653</ele>
        <time>2017-08-21T09:01:00Z</time>
      </trkpt>
      <trkpt lat="45.46119" lon="5.93574">
        <ele>1654</ele>
        <time>2017-08-21T09:01:06Z</time>
      </trkpt>
      <trkpt lat="45.46115" lon="5.93562">
        <ele>1656</ele>
        <time>2017-08-21T09:01:18Z</time>
      </trkpt>
      <trkpt lat="45.46103" lon="5.93555">
        <ele>1658</ele>
        <time>2017-08-21T09:01:46Z</time>
      </trkpt>
      <trkpt lat="45.46096" lon="5.93537">
        <ele>1660</ele>
        <time>2017-08-21T09:02:03Z</time>
      </trkpt>
      <trkpt lat="45.46092" lon="5.93533">
        <ele>1661</ele>
        <time>2017-08-21T09:02:09Z</time>
      </trkpt>
      <trkpt lat="45.46089" lon="5.93527">
        <ele>1661</ele>
        <time>2017-08-21T09:02:14Z</time>
      </trkpt>
      <trkpt lat="45.46082" lon="5.93524">
        <ele>1660</ele>
        <time>2017-08-21T09:02:30Z</time>
      </trkpt>
      <trkpt lat="45.46051" lon="5.93515">
        <ele>1652</ele>
        <time>2017-08-21T09:03:02Z</time>
      </trkpt>
      <trkpt lat="45.46032" lon="5.93526">
        <ele>1650</ele>
        <time>2017-08-21T09:03:19Z</time>
      </trkpt>
      <trkpt lat="45.46029" lon="5.9353">
        <ele>1650</ele>
        <time>2017-08-21T09:03:23Z</time>
      </trkpt>
      <trkpt lat="45.46024" lon="5.93534">
        <ele>1649</ele>
        <time>2017-08-21T09:03:28Z</time>
      </trkpt>
      <trkpt lat="45.46019" lon="5.93535">
        <ele>1649</ele>
        <time>2017-08-21T09:03:33Z</time>
      </trkpt>
      <trkpt lat="45.46014" lon="5.93532">
        <ele>1649</ele>
        <time>2017-08-21T09:03:39Z</time>
      </trkpt>
      <trkpt lat="45.46009" lon="5.93529">
        <ele>1649</ele>
        <time>2017-08-21T09:03:43Z</time>
      </trkpt>
      <trkpt lat="45.45999" lon="5.93528">
        <ele>1650</ele>
        <time>2017-08-21T09:03:52Z</time>
      </trkpt>
      <trkpt lat="45.45994" lon="5.93531">
        <ele>1650</ele>
        <time>2017-08-21T09:03:57Z</time>
      </trkpt>
      <trkpt lat="45.45985" lon="5.93535">
        <ele>1650</ele>
        <time>2017-08-21T09:04:08Z</time>
      </trkpt>
      <trkpt lat="45.45981" lon="5.93537">
        <ele>1651</ele>
        <time>2017-08-21T09:04:15Z</time>
      </trkpt>
      <trkpt lat="45.45975" lon="5.93537">
        <ele>1651</ele>
        <time>2017-08-21T09:04:20Z</time>
      </trkpt>
      <trkpt lat="45.45971" lon="5.93537">
        <ele>1652</ele>
        <time>2017-08-21T09:04:25Z</time>
      </trkpt>
      <trkpt lat="45.45967" lon="5.93542">
        <ele>1653</ele>
        <time>2017-08-21T09:04:30Z</time>
      </trkpt>
      <trkpt lat="45.45962" lon="5.93543">
        <ele>1653</ele>
        <time>2017-08-21T09:04:36Z</time>
      </trkpt>
      <trkpt lat="45.45958" lon="5.93547">
        <ele>1654</ele>
        <time>2017-08-21T09:04:43Z</time>
      </trkpt>
      <trkpt lat="45.45955" lon="5.93554">
        <ele>1654</ele>
        <time>2017-08-21T09:04:48Z</time>
      </trkpt>
      <trkpt lat="45.4595" lon="5.93558">
        <ele>1654</ele>
        <time>2017-08-21T09:04:53Z</time>
      </trkpt>
      <trkpt lat="45.45947" lon="5.93562">
        <ele>1655</ele>
        <time>2017-08-21T09:04:58Z</time>
      </trkpt>
      <trkpt lat="45.45937" lon="5.93566">
        <ele>1657</ele>
        <time>2017-08-21T09:05:08Z</time>
      </trkpt>
      <trkpt lat="45.45934" lon="5.93571">
        <ele>1657</ele>
        <time>2017-08-21T09:05:13Z</time>
      </trkpt>
      <trkpt lat="45.45929" lon="5.93571">
        <ele>1658</ele>
        <time>2017-08-21T09:05:18Z</time>
      </trkpt>
      <trkpt lat="45.4592" lon="5.93564">
        <ele>1659</ele>
        <time>2017-08-21T09:05:27Z</time>
      </trkpt>
      <trkpt lat="45.45917" lon="5.93559">
        <ele>1659</ele>
        <time>2017-08-21T09:05:33Z</time>
      </trkpt>
      <trkpt lat="45.45914" lon="5.93552">
        <ele>1658</ele>
        <time>2017-08-21T09:05:38Z</time>
      </trkpt>
      <trkpt lat="45.4591" lon="5.93547">
        <ele>1658</ele>
        <time>2017-08-21T09:05:43Z</time>
      </trkpt>
      <trkpt lat="45.45896" lon="5.93496">
        <ele>1655</ele>
        <time>2017-08-21T09:06:17Z</time>
      </trkpt>
      <trkpt lat="45.45893" lon="5.93489">
        <ele>1655</ele>
        <time>2017-08-21T09:06:22Z</time>
      </trkpt>
      <trkpt lat="45.45887" lon="5.9347">
        <ele>1653</ele>
        <time>2017-08-21T09:06:39Z</time>
      </trkpt>
      <trkpt lat="45.45884" lon="5.93464">
        <ele>1653</ele>
        <time>2017-08-21T09:06:43Z</time>
      </trkpt>
      <trkpt lat="45.45876" lon="5.93454">
        <ele>1651</ele>
        <time>2017-08-21T09:06:53Z</time>
      </trkpt>
      <trkpt lat="45.45872" lon="5.93453">
        <ele>1650</ele>
        <time>2017-08-21T09:06:58Z</time>
      </trkpt>
      <trkpt lat="45.45869" lon="5.93448">
        <ele>1649</ele>
        <time>2017-08-21T09:07:02Z</time>
      </trkpt>
      <trkpt lat="45.45868" lon="5.9344">
        <ele>1649</ele>
        <time>2017-08-21T09:07:07Z</time>
      </trkpt>
      <trkpt lat="45.45869" lon="5.93433">
        <ele>1649</ele>
        <time>2017-08-21T09:07:12Z</time>
      </trkpt>
      <trkpt lat="45.45865" lon="5.93429">
        <ele>1650</ele>
        <time>2017-08-21T09:07:17Z</time>
      </trkpt>
      <trkpt lat="45.45862" lon="5.93423">
        <ele>1651</ele>
        <time>2017-08-21T09:07:22Z</time>
      </trkpt>
      <trkpt lat="45.45863" lon="5.93416">
        <ele>1652</ele>
        <time>2017-08-21T09:07:27Z</time>
      </trkpt>
      <trkpt lat="45.45858" lon="5.93402">
        <ele>1653</ele>
        <time>2017-08-21T09:07:37Z</time>
      </trkpt>
      <trkpt lat="45.45852" lon="5.93393">
        <ele>1653</ele>
        <time>2017-08-21T09:07:45Z</time>
      </trkpt>
      <trkpt lat="45.45845" lon="5.93383">
        <ele>1654</ele>
        <time>2017-08-21T09:07:55Z</time>
      </trkpt>
      <trkpt lat="45.4584" lon="5.93372">
        <ele>1656</ele>
        <time>2017-08-21T09:08:07Z</time>
      </trkpt>
      <trkpt lat="45.45839" lon="5.93365">
        <ele>1658</ele>
        <time>2017-08-21T09:08:14Z</time>
      </trkpt>
      <trkpt lat="45.45834" lon="5.93363">
        <ele>1659</ele>
        <time>2017-08-21T09:08:19Z</time>
      </trkpt>
      <trkpt lat="45.45826" lon="5.93355">
        <ele>1660</ele>
        <time>2017-08-21T09:08:28Z</time>
      </trkpt>
      <trkpt lat="45.45819" lon="5.93335">
        <ele>1663</ele>
        <time>2017-08-21T09:08:45Z</time>
      </trkpt>
      <trkpt lat="45.45819" lon="5.93328">
        <ele>1664</ele>
        <time>2017-08-21T09:08:49Z</time>
      </trkpt>
      <trkpt lat="45.45817" lon="5.93321">
        <ele>1664</ele>
        <time>2017-08-21T09:08:54Z</time>
      </trkpt>
      <trkpt lat="45.45814" lon="5.93314">
        <ele>1664</ele>
        <time>2017-08-21T09:08:58Z</time>
      </trkpt>
      <trkpt lat="45.45813" lon="5.93308">
        <ele>1663</ele>
        <time>2017-08-21T09:09:05Z</time>
      </trkpt>
      <trkpt lat="45.45815" lon="5.93301">
        <ele>1663</ele>
        <time>2017-08-21T09:09:08Z</time>
      </trkpt>
      <trkpt lat="45.45817" lon="5.93279">
        <ele>1664</ele>
        <time>2017-08-21T09:09:25Z</time>
      </trkpt>
      <trkpt lat="45.45813" lon="5.93274">
        <ele>1665</ele>
        <time>2017-08-21T09:09:29Z</time>
      </trkpt>
      <trkpt lat="45.45811" lon="5.93267">
        <ele>1666</ele>
        <time>2017-08-21T09:09:35Z</time>
      </trkpt>
      <trkpt lat="45.45804" lon="5.93257">
        <ele>1668</ele>
        <time>2017-08-21T09:09:46Z</time>
      </trkpt>
      <trkpt lat="45.45798" lon="5.93244">
        <ele>1669</ele>
        <time>2017-08-21T09:09:56Z</time>
      </trkpt>
      <trkpt lat="45.45795" lon="5.9324">
        <ele>1670</ele>
        <time>2017-08-21T09:10:00Z</time>
      </trkpt>
      <trkpt lat="45.4579" lon="5.93238">
        <ele>1671</ele>
        <time>2017-08-21T09:10:04Z</time>
      </trkpt>
      <trkpt lat="45.45786" lon="5.93233">
        <ele>1671</ele>
        <time>2017-08-21T09:10:09Z</time>
      </trkpt>
      <trkpt lat="45.45785" lon="5.93226">
        <ele>1672</ele>
        <time>2017-08-21T09:10:14Z</time>
      </trkpt>
      <trkpt lat="45.45781" lon="5.93222">
        <ele>1673</ele>
        <time>2017-08-21T09:10:22Z</time>
      </trkpt>
      <trkpt lat="45.45776" lon="5.93217">
        <ele>1674</ele>
        <time>2017-08-21T09:10:27Z</time>
      </trkpt>
      <trkpt lat="45.45772" lon="5.93214">
        <ele>1675</ele>
        <time>2017-08-21T09:10:32Z</time>
      </trkpt>
      <trkpt lat="45.45766" lon="5.93213">
        <ele>1675</ele>
        <time>2017-08-21T09:10:36Z</time>
      </trkpt>
      <trkpt lat="45.45763" lon="5.93207">
        <ele>1676</ele>
        <time>2017-08-21T09:10:42Z</time>
      </trkpt>
      <trkpt lat="45.45762" lon="5.932">
        <ele>1677</ele>
        <time>2017-08-21T09:10:47Z</time>
      </trkpt>
      <trkpt lat="45.45759" lon="5.93194">
        <ele>1678</ele>
        <time>2017-08-21T09:10:53Z</time>
      </trkpt>
      <trkpt lat="45.45754" lon="5.9319">
        <ele>1679</ele>
        <time>2017-08-21T09:10:58Z</time>
      </trkpt>
      <trkpt lat="45.45751" lon="5.93185">
        <ele>1680</ele>
        <time>2017-08-21T09:11:02Z</time>
      </trkpt>
      <trkpt lat="45.45739" lon="5.93174">
        <ele>1681</ele>
        <time>2017-08-21T09:11:15Z</time>
      </trkpt>
      <trkpt lat="45.45724" lon="5.93139">
        <ele>1688</ele>
        <time>2017-08-21T09:11:46Z</time>
      </trkpt>
      <trkpt lat="45.45716" lon="5.93121">
        <ele>1690</ele>
        <time>2017-08-21T09:12:02Z</time>
      </trkpt>
      <trkpt lat="45.45715" lon="5.93114">
        <ele>1691</ele>
        <time>2017-08-21T09:12:08Z</time>
      </trkpt>
      <trkpt lat="45.45712" lon="5.93102">
        <ele>1693</ele>
        <time>2017-08-21T09:12:17Z</time>
      </trkpt>
      <trkpt lat="45.45705" lon="5.93093">
        <ele>1694</ele>
        <time>2017-08-21T09:12:30Z</time>
      </trkpt>
      <trkpt lat="45.45701" lon="5.93088">
        <ele>1694</ele>
        <time>2017-08-21T09:12:34Z</time>
      </trkpt>
      <trkpt lat="45.45693" lon="5.93078">
        <ele>1696</ele>
        <time>2017-08-21T09:12:44Z</time>
      </trkpt>
      <trkpt lat="45.45688" lon="5.93077">
        <ele>1697</ele>
        <time>2017-08-21T09:12:49Z</time>
      </trkpt>
      <trkpt lat="45.45679" lon="5.93079">
        <ele>1698</ele>
        <time>2017-08-21T09:12:56Z</time>
      </trkpt>
      <trkpt lat="45.45673" lon="5.93078">
        <ele>1698</ele>
        <time>2017-08-21T09:13:00Z</time>
      </trkpt>
      <trkpt lat="45.45646" lon="5.93058">
        <ele>1701</ele>
        <time>2017-08-21T09:13:32Z</time>
      </trkpt>
      <trkpt lat="45.45637" lon="5.93055">
        <ele>1703</ele>
        <time>2017-08-21T09:13:43Z</time>
      </trkpt>
      <trkpt lat="45.45612" lon="5.93038">
        <ele>1706</ele>
        <time>2017-08-21T09:14:23Z</time>
      </trkpt>
      <trkpt lat="45.45607" lon="5.93035">
        <ele>1706</ele>
        <time>2017-08-21T09:14:30Z</time>
      </trkpt>
      <trkpt lat="45.45604" lon="5.93029">
        <ele>1707</ele>
        <time>2017-08-21T09:14:56Z</time>
      </trkpt>
      <trkpt lat="45.456" lon="5.93023">
        <ele>1707</ele>
        <time>2017-08-21T09:15:06Z</time>
      </trkpt>
      <trkpt lat="45.45597" lon="5.93018">
        <ele>1708</ele>
        <time>2017-08-21T09:15:20Z</time>
      </trkpt>
      <trkpt lat="45.45597" lon="5.93017">
        <ele>1708</ele>
        <time>2017-08-21T09:21:16Z</time>
      </trkpt>
      <trkpt lat="45.456" lon="5.9301">
        <ele>1709</ele>
        <time>2017-08-21T09:21:22Z</time>
      </trkpt>
      <trkpt lat="45.45595" lon="5.93008">
        <ele>1709</ele>
        <time>2017-08-21T09:21:56Z</time>
      </trkpt>
      <trkpt lat="45.45589" lon="5.92995">
        <ele>1709</ele>
        <time>2017-08-21T09:22:04Z</time>
      </trkpt>
      <trkpt lat="45.45586" lon="5.9298">
        <ele>1710</ele>
        <time>2017-08-21T09:22:12Z</time>
      </trkpt>
      <trkpt lat="45.45584" lon="5.92973">
        <ele>1710</ele>
        <time>2017-08-21T09:22:16Z</time>
      </trkpt>
      <trkpt lat="45.45577" lon="5.92963">
        <ele>1711</ele>
        <time>2017-08-21T09:22:23Z</time>
      </trkpt>
      <trkpt lat="45.45575" lon="5.92956">
        <ele>1711</ele>
        <time>2017-08-21T09:22:26Z</time>
      </trkpt>
      <trkpt lat="45.45572" lon="5.92952">
        <ele>1711</ele>
        <time>2017-08-21T09:22:29Z</time>
      </trkpt>
      <trkpt lat="45.45567" lon="5.9295">
        <ele>1711</ele>
        <time>2017-08-21T09:22:32Z</time>
      </trkpt>
      <trkpt lat="45.45557" lon="5.92934">
        <ele>1714</ele>
        <time>2017-08-21T09:22:46Z</time>
      </trkpt>
      <trkpt lat="45.45554" lon="5.92928">
        <ele>1715</ele>
        <time>2017-08-21T09:22:49Z</time>
      </trkpt>
      <trkpt lat="45.45542" lon="5.92916">
        <ele>1718</ele>
        <time>2017-08-21T09:23:02Z</time>
      </trkpt>
      <trkpt lat="45.45539" lon="5.9291">
        <ele>1719</ele>
        <time>2017-08-21T09:23:07Z</time>
      </trkpt>
      <trkpt lat="45.45526" lon="5.92899">
        <ele>1722</ele>
        <time>2017-08-21T09:23:21Z</time>
      </trkpt>
      <trkpt lat="45.45516" lon="5.92896">
        <ele>1724</ele>
        <time>2017-08-21T09:23:30Z</time>
      </trkpt>
      <trkpt lat="45.45511" lon="5.92894">
        <ele>1725</ele>
        <time>2017-08-21T09:23:35Z</time>
      </trkpt>
      <trkpt lat="45.45507" lon="5.9289">
        <ele>1726</ele>
        <time>2017-08-21T09:23:40Z</time>
      </trkpt>
      <trkpt lat="45.45484" lon="5.92875">
        <ele>1731</ele>
        <time>2017-08-21T09:24:06Z</time>
      </trkpt>
      <trkpt lat="45.45479" lon="5.92875">
        <ele>1731</ele>
        <time>2017-08-21T09:24:11Z</time>
      </trkpt>
      <trkpt lat="45.45471" lon="5.92866">
        <ele>1732</ele>
        <time>2017-08-21T09:24:20Z</time>
      </trkpt>
      <trkpt lat="45.45466" lon="5.92863">
        <ele>1732</ele>
        <time>2017-08-21T09:24:24Z</time>
      </trkpt>
      <trkpt lat="45.4546" lon="5.92862">
        <ele>1732</ele>
        <time>2017-08-21T09:24:28Z</time>
      </trkpt>
      <trkpt lat="45.45451" lon="5.92858">
        <ele>1733</ele>
        <time>2017-08-21T09:24:37Z</time>
      </trkpt>
      <trkpt lat="45.45446" lon="5.92855">
        <ele>1733</ele>
        <time>2017-08-21T09:24:43Z</time>
      </trkpt>
      <trkpt lat="45.45433" lon="5.92845">
        <ele>1734</ele>
        <time>2017-08-21T09:24:57Z</time>
      </trkpt>
      <trkpt lat="45.45428" lon="5.92845">
        <ele>1734</ele>
        <time>2017-08-21T09:25:02Z</time>
      </trkpt>
      <trkpt lat="45.45423" lon="5.92842">
        <ele>1735</ele>
        <time>2017-08-21T09:25:08Z</time>
      </trkpt>
      <trkpt lat="45.45418" lon="5.92831">
        <ele>1736</ele>
        <time>2017-08-21T09:25:17Z</time>
      </trkpt>
      <trkpt lat="45.45412" lon="5.92832">
        <ele>1737</ele>
        <time>2017-08-21T09:25:23Z</time>
      </trkpt>
      <trkpt lat="45.45409" lon="5.92837">
        <ele>1737</ele>
        <time>2017-08-21T09:25:27Z</time>
      </trkpt>
      <trkpt lat="45.45394" lon="5.92835">
        <ele>1739</ele>
        <time>2017-08-21T09:25:42Z</time>
      </trkpt>
      <trkpt lat="45.45389" lon="5.92833">
        <ele>1740</ele>
        <time>2017-08-21T09:25:48Z</time>
      </trkpt>
      <trkpt lat="45.45378" lon="5.92835">
        <ele>1741</ele>
        <time>2017-08-21T09:25:58Z</time>
      </trkpt>
      <trkpt lat="45.45374" lon="5.92839">
        <ele>1741</ele>
        <time>2017-08-21T09:26:03Z</time>
      </trkpt>
      <trkpt lat="45.45369" lon="5.92841">
        <ele>1741</ele>
        <time>2017-08-21T09:26:07Z</time>
      </trkpt>
      <trkpt lat="45.45364" lon="5.92841">
        <ele>1742</ele>
        <time>2017-08-21T09:26:11Z</time>
      </trkpt>
      <trkpt lat="45.45359" lon="5.92842">
        <ele>1742</ele>
        <time>2017-08-21T09:26:15Z</time>
      </trkpt>
      <trkpt lat="45.45354" lon="5.92845">
        <ele>1742</ele>
        <time>2017-08-21T09:26:21Z</time>
      </trkpt>
      <trkpt lat="45.4535" lon="5.92849">
        <ele>1743</ele>
        <time>2017-08-21T09:26:29Z</time>
      </trkpt>
      <trkpt lat="45.45343" lon="5.92859">
        <ele>1745</ele>
        <time>2017-08-21T09:26:45Z</time>
      </trkpt>
      <trkpt lat="45.45328" lon="5.92864">
        <ele>1747</ele>
        <time>2017-08-21T09:27:05Z</time>
      </trkpt>
      <trkpt lat="45.45323" lon="5.92862">
        <ele>1747</ele>
        <time>2017-08-21T09:27:11Z</time>
      </trkpt>
      <trkpt lat="45.45313" lon="5.92862">
        <ele>1749</ele>
        <time>2017-08-21T09:27:23Z</time>
      </trkpt>
      <trkpt lat="45.4531" lon="5.92857">
        <ele>1750</ele>
        <time>2017-08-21T09:27:29Z</time>
      </trkpt>
      <trkpt lat="45.45305" lon="5.92855">
        <ele>1751</ele>
        <time>2017-08-21T09:27:34Z</time>
      </trkpt>
      <trkpt lat="45.453" lon="5.92854">
        <ele>1751</ele>
        <time>2017-08-21T09:27:41Z</time>
      </trkpt>
      <trkpt lat="45.45291" lon="5.9286">
        <ele>1752</ele>
        <time>2017-08-21T09:27:52Z</time>
      </trkpt>
      <trkpt lat="45.45282" lon="5.92856">
        <ele>1753</ele>
        <time>2017-08-21T09:28:02Z</time>
      </trkpt>
      <trkpt lat="45.45277" lon="5.92857">
        <ele>1753</ele>
        <time>2017-08-21T09:28:11Z</time>
      </trkpt>
      <trkpt lat="45.45273" lon="5.92855">
        <ele>1754</ele>
        <time>2017-08-21T09:28:20Z</time>
      </trkpt>
      <trkpt lat="45.45268" lon="5.92858">
        <ele>1755</ele>
        <time>2017-08-21T09:28:26Z</time>
      </trkpt>
      <trkpt lat="45.45263" lon="5.92858">
        <ele>1756</ele>
        <time>2017-08-21T09:28:32Z</time>
      </trkpt>
      <trkpt lat="45.45259" lon="5.92861">
        <ele>1757</ele>
        <time>2017-08-21T09:28:40Z</time>
      </trkpt>
      <trkpt lat="45.45253" lon="5.92857">
        <ele>1759</ele>
        <time>2017-08-21T09:28:53Z</time>
      </trkpt>
      <trkpt lat="45.45252" lon="5.92851">
        <ele>1760</ele>
        <time>2017-08-21T09:28:59Z</time>
      </trkpt>
      <trkpt lat="45.45244" lon="5.92842">
        <ele>1762</ele>
        <time>2017-08-21T09:29:13Z</time>
      </trkpt>
      <trkpt lat="45.4524" lon="5.92839">
        <ele>1762</ele>
        <time>2017-08-21T09:29:19Z</time>
      </trkpt>
      <trkpt lat="45.45236" lon="5.92834">
        <ele>1763</ele>
        <time>2017-08-21T09:29:24Z</time>
      </trkpt>
      <trkpt lat="45.45231" lon="5.92831">
        <ele>1764</ele>
        <time>2017-08-21T09:29:30Z</time>
      </trkpt>
      <trkpt lat="45.45221" lon="5.92831">
        <ele>1765</ele>
        <time>2017-08-21T09:29:40Z</time>
      </trkpt>
      <trkpt lat="45.45218" lon="5.92826">
        <ele>1765</ele>
        <time>2017-08-21T09:29:45Z</time>
      </trkpt>
      <trkpt lat="45.45218" lon="5.92826">
        <ele>1768</ele>
        <time>2017-08-21T09:32:33Z</time>
      </trkpt>
      <trkpt lat="45.45216" lon="5.92834">
        <ele>1768</ele>
        <time>2017-08-21T09:32:37Z</time>
      </trkpt>
      <trkpt lat="45.45218" lon="5.9283">
        <ele>1769</ele>
        <time>2017-08-21T09:33:21Z</time>
      </trkpt>
      <trkpt lat="45.45214" lon="5.92826">
        <ele>1764</ele>
        <time>2017-08-21T09:34:40Z</time>
      </trkpt>
      <trkpt lat="45.45209" lon="5.92825">
        <ele>1763</ele>
        <time>2017-08-21T09:34:49Z</time>
      </trkpt>
      <trkpt lat="45.45203" lon="5.92823">
        <ele>1766</ele>
        <time>2017-08-21T09:35:20Z</time>
      </trkpt>
      <trkpt lat="45.45198" lon="5.92822">
        <ele>1767</ele>
        <time>2017-08-21T09:35:26Z</time>
      </trkpt>
      <trkpt lat="45.45194" lon="5.92826">
        <ele>1768</ele>
        <time>2017-08-21T09:35:33Z</time>
      </trkpt>
      <trkpt lat="45.45191" lon="5.92832">
        <ele>1770</ele>
        <time>2017-08-21T09:35:37Z</time>
      </trkpt>
      <trkpt lat="45.45187" lon="5.92836">
        <ele>1771</ele>
        <time>2017-08-21T09:35:42Z</time>
      </trkpt>
      <trkpt lat="45.45182" lon="5.92835">
        <ele>1773</ele>
        <time>2017-08-21T09:35:48Z</time>
      </trkpt>
      <trkpt lat="45.45181" lon="5.9282">
        <ele>1775</ele>
        <time>2017-08-21T09:36:23Z</time>
      </trkpt>
      <trkpt lat="45.45185" lon="5.92827">
        <ele>1775</ele>
        <time>2017-08-21T09:36:33Z</time>
      </trkpt>
      <trkpt lat="45.45184" lon="5.92826">
        <ele>1774</ele>
        <time>2017-08-21T09:37:51Z</time>
      </trkpt>
      <trkpt lat="45.45182" lon="5.92812">
        <ele>1774</ele>
        <time>2017-08-21T09:37:59Z</time>
      </trkpt>
      <trkpt lat="45.45181" lon="5.92805">
        <ele>1775</ele>
        <time>2017-08-21T09:38:03Z</time>
      </trkpt>
      <trkpt lat="45.45182" lon="5.92798">
        <ele>1775</ele>
        <time>2017-08-21T09:38:07Z</time>
      </trkpt>
      <trkpt lat="45.45181" lon="5.92791">
        <ele>1776</ele>
        <time>2017-08-21T09:38:11Z</time>
      </trkpt>
      <trkpt lat="45.45177" lon="5.92785">
        <ele>1776</ele>
        <time>2017-08-21T09:38:15Z</time>
      </trkpt>
      <trkpt lat="45.45176" lon="5.9277">
        <ele>1777</ele>
        <time>2017-08-21T09:38:23Z</time>
      </trkpt>
      <trkpt lat="45.45168" lon="5.92752">
        <ele>1779</ele>
        <time>2017-08-21T09:38:37Z</time>
      </trkpt>
      <trkpt lat="45.45169" lon="5.92723">
        <ele>1782</ele>
        <time>2017-08-21T09:38:54Z</time>
      </trkpt>
      <trkpt lat="45.45167" lon="5.92716">
        <ele>1783</ele>
        <time>2017-08-21T09:38:59Z</time>
      </trkpt>
      <trkpt lat="45.45168" lon="5.92709">
        <ele>1783</ele>
        <time>2017-08-21T09:39:03Z</time>
      </trkpt>
      <trkpt lat="45.45168" lon="5.92702">
        <ele>1784</ele>
        <time>2017-08-21T09:39:08Z</time>
      </trkpt>
      <trkpt lat="45.45163" lon="5.92697">
        <ele>1784</ele>
        <time>2017-08-21T09:39:12Z</time>
      </trkpt>
      <trkpt lat="45.45154" lon="5.9268">
        <ele>1787</ele>
        <time>2017-08-21T09:39:23Z</time>
      </trkpt>
      <trkpt lat="45.45156" lon="5.92674">
        <ele>1788</ele>
        <time>2017-08-21T09:39:28Z</time>
      </trkpt>
      <trkpt lat="45.45158" lon="5.92668">
        <ele>1789</ele>
        <time>2017-08-21T09:39:34Z</time>
      </trkpt>
      <trkpt lat="45.45147" lon="5.92644">
        <ele>1792</ele>
        <time>2017-08-21T09:39:49Z</time>
      </trkpt>
      <trkpt lat="45.45144" lon="5.92637">
        <ele>1793</ele>
        <time>2017-08-21T09:39:53Z</time>
      </trkpt>
      <trkpt lat="45.45147" lon="5.92631">
        <ele>1794</ele>
        <time>2017-08-21T09:39:57Z</time>
      </trkpt>
      <trkpt lat="45.45153" lon="5.92619">
        <ele>1795</ele>
        <time>2017-08-21T09:40:05Z</time>
      </trkpt>
      <trkpt lat="45.45156" lon="5.92604">
        <ele>1795</ele>
        <time>2017-08-21T09:40:12Z</time>
      </trkpt>
      <trkpt lat="45.45156" lon="5.92598">
        <ele>1795</ele>
        <time>2017-08-21T09:40:15Z</time>
      </trkpt>
      <trkpt lat="45.4516" lon="5.92584">
        <ele>1796</ele>
        <time>2017-08-21T09:40:21Z</time>
      </trkpt>
      <trkpt lat="45.45159" lon="5.92569">
        <ele>1797</ele>
        <time>2017-08-21T09:40:28Z</time>
      </trkpt>
      <trkpt lat="45.4516" lon="5.92561">
        <ele>1797</ele>
        <time>2017-08-21T09:40:32Z</time>
      </trkpt>
      <trkpt lat="45.4516" lon="5.92546">
        <ele>1798</ele>
        <time>2017-08-21T09:40:42Z</time>
      </trkpt>
      <trkpt lat="45.45157" lon="5.92541">
        <ele>1799</ele>
        <time>2017-08-21T09:40:46Z</time>
      </trkpt>
      <trkpt lat="45.45156" lon="5.92518">
        <ele>1800</ele>
        <time>2017-08-21T09:40:59Z</time>
      </trkpt>
      <trkpt lat="45.45157" lon="5.9251">
        <ele>1801</ele>
        <time>2017-08-21T09:41:04Z</time>
      </trkpt>
      <trkpt lat="45.45161" lon="5.92489">
        <ele>1801</ele>
        <time>2017-08-21T09:41:16Z</time>
      </trkpt>
      <trkpt lat="45.45164" lon="5.92483">
        <ele>1802</ele>
        <time>2017-08-21T09:41:20Z</time>
      </trkpt>
      <trkpt lat="45.45164" lon="5.92469">
        <ele>1804</ele>
        <time>2017-08-21T09:41:31Z</time>
      </trkpt>
      <trkpt lat="45.45164" lon="5.92462">
        <ele>1805</ele>
        <time>2017-08-21T09:41:37Z</time>
      </trkpt>
      <trkpt lat="45.4517" lon="5.92458">
        <ele>1806</ele>
        <time>2017-08-21T09:41:45Z</time>
      </trkpt>
      <trkpt lat="45.45174" lon="5.92454">
        <ele>1805</ele>
        <time>2017-08-21T09:41:49Z</time>
      </trkpt>
      <trkpt lat="45.45186" lon="5.9243">
        <ele>1805</ele>
        <time>2017-08-21T09:42:07Z</time>
      </trkpt>
      <trkpt lat="45.45192" lon="5.92431">
        <ele>1805</ele>
        <time>2017-08-21T09:42:12Z</time>
      </trkpt>
      <trkpt lat="45.45197" lon="5.92431">
        <ele>1805</ele>
        <time>2017-08-21T09:42:15Z</time>
      </trkpt>
      <trkpt lat="45.45202" lon="5.92426">
        <ele>1806</ele>
        <time>2017-08-21T09:42:19Z</time>
      </trkpt>
      <trkpt lat="45.45203" lon="5.9242">
        <ele>1805</ele>
        <time>2017-08-21T09:42:22Z</time>
      </trkpt>
      <trkpt lat="45.45208" lon="5.92418">
        <ele>1805</ele>
        <time>2017-08-21T09:42:27Z</time>
      </trkpt>
      <trkpt lat="45.45214" lon="5.92421">
        <ele>1805</ele>
        <time>2017-08-21T09:42:31Z</time>
      </trkpt>
      <trkpt lat="45.45224" lon="5.92419">
        <ele>1804</ele>
        <time>2017-08-21T09:42:37Z</time>
      </trkpt>
      <trkpt lat="45.45229" lon="5.92415">
        <ele>1804</ele>
        <time>2017-08-21T09:42:42Z</time>
      </trkpt>
      <trkpt lat="45.45241" lon="5.92402">
        <ele>1805</ele>
        <time>2017-08-21T09:42:53Z</time>
      </trkpt>
      <trkpt lat="45.45246" lon="5.92399">
        <ele>1806</ele>
        <time>2017-08-21T09:42:57Z</time>
      </trkpt>
      <trkpt lat="45.45251" lon="5.92398">
        <ele>1806</ele>
        <time>2017-08-21T09:43:01Z</time>
      </trkpt>
      <trkpt lat="45.45259" lon="5.9239">
        <ele>1807</ele>
        <time>2017-08-21T09:43:13Z</time>
      </trkpt>
      <trkpt lat="45.45265" lon="5.92388">
        <ele>1807</ele>
        <time>2017-08-21T09:43:17Z</time>
      </trkpt>
      <trkpt lat="45.4527" lon="5.92384">
        <ele>1808</ele>
        <time>2017-08-21T09:43:21Z</time>
      </trkpt>
      <trkpt lat="45.45276" lon="5.92374">
        <ele>1809</ele>
        <time>2017-08-21T09:43:28Z</time>
      </trkpt>
      <trkpt lat="45.45286" lon="5.92372">
        <ele>1809</ele>
        <time>2017-08-21T09:43:36Z</time>
      </trkpt>
      <trkpt lat="45.45293" lon="5.92366">
        <ele>1810</ele>
        <time>2017-08-21T09:43:43Z</time>
      </trkpt>
      <trkpt lat="45.45313" lon="5.9236">
        <ele>1814</ele>
        <time>2017-08-21T09:44:01Z</time>
      </trkpt>
      <trkpt lat="45.45323" lon="5.92361">
        <ele>1817</ele>
        <time>2017-08-21T09:44:10Z</time>
      </trkpt>
      <trkpt lat="45.45328" lon="5.92361">
        <ele>1817</ele>
        <time>2017-08-21T09:44:14Z</time>
      </trkpt>
      <trkpt lat="45.45335" lon="5.92362">
        <ele>1818</ele>
        <time>2017-08-21T09:44:24Z</time>
      </trkpt>
      <trkpt lat="45.4534" lon="5.92362">
        <ele>1818</ele>
        <time>2017-08-21T09:44:28Z</time>
      </trkpt>
      <trkpt lat="45.45345" lon="5.92364">
        <ele>1818</ele>
        <time>2017-08-21T09:44:32Z</time>
      </trkpt>
      <trkpt lat="45.45351" lon="5.92364">
        <ele>1819</ele>
        <time>2017-08-21T09:44:36Z</time>
      </trkpt>
      <trkpt lat="45.45356" lon="5.92366">
        <ele>1818</ele>
        <time>2017-08-21T09:44:40Z</time>
      </trkpt>
      <trkpt lat="45.45362" lon="5.92366">
        <ele>1819</ele>
        <time>2017-08-21T09:44:45Z</time>
      </trkpt>
      <trkpt lat="45.45366" lon="5.9237">
        <ele>1819</ele>
        <time>2017-08-21T09:44:52Z</time>
      </trkpt>
      <trkpt lat="45.45371" lon="5.9237">
        <ele>1819</ele>
        <time>2017-08-21T09:44:56Z</time>
      </trkpt>
      <trkpt lat="45.45376" lon="5.9237">
        <ele>1820</ele>
        <time>2017-08-21T09:45:00Z</time>
      </trkpt>
      <trkpt lat="45.45381" lon="5.92373">
        <ele>1821</ele>
        <time>2017-08-21T09:45:06Z</time>
      </trkpt>
      <trkpt lat="45.45385" lon="5.92372">
        <ele>1821</ele>
        <time>2017-08-21T09:45:09Z</time>
      </trkpt>
      <trkpt lat="45.4539" lon="5.92372">
        <ele>1820</ele>
        <time>2017-08-21T09:45:12Z</time>
      </trkpt>
      <trkpt lat="45.45395" lon="5.9237">
        <ele>1820</ele>
        <time>2017-08-21T09:45:19Z</time>
      </trkpt>
      <trkpt lat="45.45399" lon="5.92366">
        <ele>1820</ele>
        <time>2017-08-21T09:45:25Z</time>
      </trkpt>
      <trkpt lat="45.45404" lon="5.92364">
        <ele>1820</ele>
        <time>2017-08-21T09:45:29Z</time>
      </trkpt>
      <trkpt lat="45.45409" lon="5.9236">
        <ele>1820</ele>
        <time>2017-08-21T09:45:33Z</time>
      </trkpt>
      <trkpt lat="45.45418" lon="5.92355">
        <ele>1822</ele>
        <time>2017-08-21T09:45:42Z</time>
      </trkpt>
      <trkpt lat="45.45422" lon="5.92349">
        <ele>1823</ele>
        <time>2017-08-21T09:45:48Z</time>
      </trkpt>
      <trkpt lat="45.45426" lon="5.92345">
        <ele>1823</ele>
        <time>2017-08-21T09:45:54Z</time>
      </trkpt>
      <trkpt lat="45.45432" lon="5.92333">
        <ele>1825</ele>
        <time>2017-08-21T09:46:05Z</time>
      </trkpt>
      <trkpt lat="45.45437" lon="5.9233">
        <ele>1826</ele>
        <time>2017-08-21T09:46:09Z</time>
      </trkpt>
      <trkpt lat="45.45441" lon="5.92327">
        <ele>1827</ele>
        <time>2017-08-21T09:46:12Z</time>
      </trkpt>
      <trkpt lat="45.45446" lon="5.92315">
        <ele>1829</ele>
        <time>2017-08-21T09:46:21Z</time>
      </trkpt>
      <trkpt lat="45.45464" lon="5.92305">
        <ele>1834</ele>
        <time>2017-08-21T09:46:38Z</time>
      </trkpt>
      <trkpt lat="45.45475" lon="5.92307">
        <ele>1834</ele>
        <time>2017-08-21T09:46:46Z</time>
      </trkpt>
      <trkpt lat="45.45484" lon="5.92305">
        <ele>1838</ele>
        <time>2017-08-21T09:48:59Z</time>
      </trkpt>
      <trkpt lat="45.4548" lon="5.92302">
        <ele>1838</ele>
        <time>2017-08-21T09:52:05Z</time>
      </trkpt>
      <trkpt lat="45.45473" lon="5.92297">
        <ele>1840</ele>
        <time>2017-08-21T09:55:13Z</time>
      </trkpt>
      <trkpt lat="45.45474" lon="5.92292">
        <ele>1847</ele>
        <time>2017-08-21T09:55:25Z</time>
      </trkpt>
      <trkpt lat="45.45473" lon="5.92262">
        <ele>1857</ele>
        <time>2017-08-21T09:56:00Z</time>
      </trkpt>
      <trkpt lat="45.45471" lon="5.92255">
        <ele>1859</ele>
        <time>2017-08-21T09:56:08Z</time>
      </trkpt>
      <trkpt lat="45.45467" lon="5.92251">
        <ele>1860</ele>
        <time>2017-08-21T09:56:14Z</time>
      </trkpt>
      <trkpt lat="45.45462" lon="5.92254">
        <ele>1861</ele>
        <time>2017-08-21T09:56:18Z</time>
      </trkpt>
      <trkpt lat="45.45458" lon="5.92258">
        <ele>1861</ele>
        <time>2017-08-21T09:56:20Z</time>
      </trkpt>
      <trkpt lat="45.45454" lon="5.92262">
        <ele>1861</ele>
        <time>2017-08-21T09:56:23Z</time>
      </trkpt>
      <trkpt lat="45.45443" lon="5.92262">
        <ele>1861</ele>
        <time>2017-08-21T09:56:30Z</time>
      </trkpt>
      <trkpt lat="45.45439" lon="5.92261">
        <ele>1860</ele>
        <time>2017-08-21T09:56:36Z</time>
      </trkpt>
      <trkpt lat="45.45437" lon="5.92255">
        <ele>1859</ele>
        <time>2017-08-21T09:56:41Z</time>
      </trkpt>
      <trkpt lat="45.45435" lon="5.92249">
        <ele>1857</ele>
        <time>2017-08-21T09:56:45Z</time>
      </trkpt>
      <trkpt lat="45.4543" lon="5.92246">
        <ele>1857</ele>
        <time>2017-08-21T09:56:49Z</time>
      </trkpt>
      <trkpt lat="45.45426" lon="5.92242">
        <ele>1857</ele>
        <time>2017-08-21T09:56:53Z</time>
      </trkpt>
      <trkpt lat="45.45422" lon="5.9224">
        <ele>1858</ele>
        <time>2017-08-21T09:56:57Z</time>
      </trkpt>
      <trkpt lat="45.45417" lon="5.92241">
        <ele>1858</ele>
        <time>2017-08-21T09:57:03Z</time>
      </trkpt>
      <trkpt lat="45.45413" lon="5.92245">
        <ele>1858</ele>
        <time>2017-08-21T09:57:08Z</time>
      </trkpt>
      <trkpt lat="45.45408" lon="5.92248">
        <ele>1858</ele>
        <time>2017-08-21T09:57:13Z</time>
      </trkpt>
      <trkpt lat="45.45403" lon="5.92249">
        <ele>1858</ele>
        <time>2017-08-21T09:57:18Z</time>
      </trkpt>
      <trkpt lat="45.45399" lon="5.92245">
        <ele>1859</ele>
        <time>2017-08-21T09:57:24Z</time>
      </trkpt>
      <trkpt lat="45.45395" lon="5.9224">
        <ele>1859</ele>
        <time>2017-08-21T09:57:28Z</time>
      </trkpt>
      <trkpt lat="45.45391" lon="5.92237">
        <ele>1859</ele>
        <time>2017-08-21T09:57:31Z</time>
      </trkpt>
      <trkpt lat="45.45384" lon="5.92228">
        <ele>1858</ele>
        <time>2017-08-21T09:57:39Z</time>
      </trkpt>
      <trkpt lat="45.4537" lon="5.9223">
        <ele>1856</ele>
        <time>2017-08-21T09:57:49Z</time>
      </trkpt>
      <trkpt lat="45.4535" lon="5.92224">
        <ele>1852</ele>
        <time>2017-08-21T09:58:03Z</time>
      </trkpt>
      <trkpt lat="45.45332" lon="5.92213">
        <ele>1851</ele>
        <time>2017-08-21T09:58:17Z</time>
      </trkpt>
      <trkpt lat="45.4533" lon="5.92207">
        <ele>1850</ele>
        <time>2017-08-21T09:58:20Z</time>
      </trkpt>
      <trkpt lat="45.4532" lon="5.922">
        <ele>1850</ele>
        <time>2017-08-21T09:58:28Z</time>
      </trkpt>
      <trkpt lat="45.45315" lon="5.92197">
        <ele>1850</ele>
        <time>2017-08-21T09:58:33Z</time>
      </trkpt>
      <trkpt lat="45.4531" lon="5.92196">
        <ele>1850</ele>
        <time>2017-08-21T09:58:37Z</time>
      </trkpt>
      <trkpt lat="45.45302" lon="5.92189">
        <ele>1850</ele>
        <time>2017-08-21T09:58:44Z</time>
      </trkpt>
      <trkpt lat="45.45294" lon="5.92182">
        <ele>1850</ele>
        <time>2017-08-21T09:58:50Z</time>
      </trkpt>
      <trkpt lat="45.45289" lon="5.92171">
        <ele>1850</ele>
        <time>2017-08-21T09:58:57Z</time>
      </trkpt>
      <trkpt lat="45.45279" lon="5.92168">
        <ele>1850</ele>
        <time>2017-08-21T09:59:03Z</time>
      </trkpt>
      <trkpt lat="45.45269" lon="5.92165">
        <ele>1850</ele>
        <time>2017-08-21T09:59:11Z</time>
      </trkpt>
      <trkpt lat="45.45261" lon="5.92158">
        <ele>1849</ele>
        <time>2017-08-21T09:59:20Z</time>
      </trkpt>
      <trkpt lat="45.45242" lon="5.9215">
        <ele>1851</ele>
        <time>2017-08-21T09:59:42Z</time>
      </trkpt>
      <trkpt lat="45.45228" lon="5.9213">
        <ele>1853</ele>
        <time>2017-08-21T09:59:58Z</time>
      </trkpt>
      <trkpt lat="45.45227" lon="5.92116">
        <ele>1854</ele>
        <time>2017-08-21T10:00:06Z</time>
      </trkpt>
      <trkpt lat="45.45227" lon="5.92101">
        <ele>1854</ele>
        <time>2017-08-21T10:00:13Z</time>
      </trkpt>
      <trkpt lat="45.45223" lon="5.92087">
        <ele>1854</ele>
        <time>2017-08-21T10:00:22Z</time>
      </trkpt>
      <trkpt lat="45.45209" lon="5.92067">
        <ele>1856</ele>
        <time>2017-08-21T10:00:35Z</time>
      </trkpt>
      <trkpt lat="45.45205" lon="5.92058">
        <ele>1857</ele>
        <time>2017-08-21T10:00:40Z</time>
      </trkpt>
      <trkpt lat="45.45203" lon="5.92052">
        <ele>1858</ele>
        <time>2017-08-21T10:00:45Z</time>
      </trkpt>
      <trkpt lat="45.45201" lon="5.92046">
        <ele>1858</ele>
        <time>2017-08-21T10:00:50Z</time>
      </trkpt>
      <trkpt lat="45.45197" lon="5.92044">
        <ele>1857</ele>
        <time>2017-08-21T10:00:57Z</time>
      </trkpt>
      <trkpt lat="45.45191" lon="5.9205">
        <ele>1854</ele>
        <time>2017-08-21T10:02:44Z</time>
      </trkpt>
      <trkpt lat="45.45187" lon="5.92055">
        <ele>1854</ele>
        <time>2017-08-21T10:02:49Z</time>
      </trkpt>
      <trkpt lat="45.45176" lon="5.92058">
        <ele>1852</ele>
        <time>2017-08-21T10:02:57Z</time>
      </trkpt>
      <trkpt lat="45.4517" lon="5.92068">
        <ele>1851</ele>
        <time>2017-08-21T10:03:05Z</time>
      </trkpt>
      <trkpt lat="45.45166" lon="5.92072">
        <ele>1849</ele>
        <time>2017-08-21T10:03:10Z</time>
      </trkpt>
      <trkpt lat="45.45162" lon="5.92069">
        <ele>1848</ele>
        <time>2017-08-21T10:03:15Z</time>
      </trkpt>
      <trkpt lat="45.45157" lon="5.9207">
        <ele>1847</ele>
        <time>2017-08-21T10:03:18Z</time>
      </trkpt>
      <trkpt lat="45.45157" lon="5.92059">
        <ele>1844</ele>
        <time>2017-08-21T10:03:23Z</time>
      </trkpt>
      <trkpt lat="45.45153" lon="5.92057">
        <ele>1842</ele>
        <time>2017-08-21T10:03:26Z</time>
      </trkpt>
      <trkpt lat="45.45147" lon="5.92059">
        <ele>1839</ele>
        <time>2017-08-21T10:03:34Z</time>
      </trkpt>
      <trkpt lat="45.45145" lon="5.92043">
        <ele>1836</ele>
        <time>2017-08-21T10:03:52Z</time>
      </trkpt>
      <trkpt lat="45.45136" lon="5.92037">
        <ele>1834</ele>
        <time>2017-08-21T10:03:57Z</time>
      </trkpt>
      <trkpt lat="45.45123" lon="5.92025">
        <ele>1824</ele>
        <time>2017-08-21T10:04:14Z</time>
      </trkpt>
      <trkpt lat="45.45124" lon="5.92012">
        <ele>1817</ele>
        <time>2017-08-21T10:04:25Z</time>
      </trkpt>
      <trkpt lat="45.45123" lon="5.91998">
        <ele>1815</ele>
        <time>2017-08-21T10:04:32Z</time>
      </trkpt>
      <trkpt lat="45.45117" lon="5.91985">
        <ele>1811</ele>
        <time>2017-08-21T10:04:38Z</time>
      </trkpt>
      <trkpt lat="45.45121" lon="5.91969">
        <ele>1805</ele>
        <time>2017-08-21T10:04:52Z</time>
      </trkpt>
      <trkpt lat="45.45112" lon="5.91952">
        <ele>1793</ele>
        <time>2017-08-21T10:05:16Z</time>
      </trkpt>
      <trkpt lat="45.45119" lon="5.91944">
        <ele>1789</ele>
        <time>2017-08-21T10:05:22Z</time>
      </trkpt>
      <trkpt lat="45.45128" lon="5.91938">
        <ele>1785</ele>
        <time>2017-08-21T10:05:30Z</time>
      </trkpt>
      <trkpt lat="45.45137" lon="5.9194">
        <ele>1779</ele>
        <time>2017-08-21T10:05:46Z</time>
      </trkpt>
      <trkpt lat="45.45141" lon="5.91928">
        <ele>1777</ele>
        <time>2017-08-21T10:05:58Z</time>
      </trkpt>
      <trkpt lat="45.45148" lon="5.91921">
        <ele>1770</ele>
        <time>2017-08-21T10:06:09Z</time>
      </trkpt>
      <trkpt lat="45.45141" lon="5.91905">
        <ele>1763</ele>
        <time>2017-08-21T10:06:30Z</time>
      </trkpt>
      <trkpt lat="45.45145" lon="5.91889">
        <ele>1750</ele>
        <time>2017-08-21T10:07:02Z</time>
      </trkpt>
      <trkpt lat="45.45139" lon="5.91879">
        <ele>1747</ele>
        <time>2017-08-21T10:07:15Z</time>
      </trkpt>
      <trkpt lat="45.45136" lon="5.91873">
        <ele>1733</ele>
        <time>2017-08-21T10:08:09Z</time>
      </trkpt>
      <trkpt lat="45.45127" lon="5.91869">
        <ele>1732</ele>
        <time>2017-08-21T10:09:18Z</time>
      </trkpt>
      <trkpt lat="45.45116" lon="5.91862">
        <ele>1732</ele>
        <time>2017-08-21T10:09:22Z</time>
      </trkpt>
      <trkpt lat="45.45095" lon="5.91848">
        <ele>1729</ele>
        <time>2017-08-21T10:09:28Z</time>
      </trkpt>
      <trkpt lat="45.4504" lon="5.91844">
        <ele>1726</ele>
        <time>2017-08-21T10:09:44Z</time>
      </trkpt>
      <trkpt lat="45.45031" lon="5.91839">
        <ele>1726</ele>
        <time>2017-08-21T10:09:47Z</time>
      </trkpt>
      <trkpt lat="45.45024" lon="5.91831">
        <ele>1727</ele>
        <time>2017-08-21T10:09:51Z</time>
      </trkpt>
      <trkpt lat="45.45015" lon="5.91812">
        <ele>1727</ele>
        <time>2017-08-21T10:10:04Z</time>
      </trkpt>
      <trkpt lat="45.45013" lon="5.91797">
        <ele>1729</ele>
        <time>2017-08-21T10:10:09Z</time>
      </trkpt>
      <trkpt lat="45.45007" lon="5.91784">
        <ele>1730</ele>
        <time>2017-08-21T10:10:13Z</time>
      </trkpt>
      <trkpt lat="45.45" lon="5.91771">
        <ele>1730</ele>
        <time>2017-08-21T10:10:17Z</time>
      </trkpt>
      <trkpt lat="45.44989" lon="5.91771">
        <ele>1729</ele>
        <time>2017-08-21T10:10:21Z</time>
      </trkpt>
      <trkpt lat="45.44981" lon="5.91779">
        <ele>1727</ele>
        <time>2017-08-21T10:10:25Z</time>
      </trkpt>
      <trkpt lat="45.44975" lon="5.91793">
        <ele>1726</ele>
        <time>2017-08-21T10:10:30Z</time>
      </trkpt>
      <trkpt lat="45.4497" lon="5.91804">
        <ele>1723</ele>
        <time>2017-08-21T10:10:34Z</time>
      </trkpt>
      <trkpt lat="45.4496" lon="5.91808">
        <ele>1722</ele>
        <time>2017-08-21T10:10:38Z</time>
      </trkpt>
      <trkpt lat="45.44955" lon="5.91805">
        <ele>1720</ele>
        <time>2017-08-21T10:10:41Z</time>
      </trkpt>
      <trkpt lat="45.44956" lon="5.91798">
        <ele>1718</ele>
        <time>2017-08-21T10:10:44Z</time>
      </trkpt>
      <trkpt lat="45.44958" lon="5.91791">
        <ele>1716</ele>
        <time>2017-08-21T10:10:47Z</time>
      </trkpt>
      <trkpt lat="45.44957" lon="5.91782">
        <ele>1714</ele>
        <time>2017-08-21T10:10:50Z</time>
      </trkpt>
      <trkpt lat="45.44964" lon="5.91767">
        <ele>1709</ele>
        <time>2017-08-21T10:10:57Z</time>
      </trkpt>
      <trkpt lat="45.44979" lon="5.91752">
        <ele>1705</ele>
        <time>2017-08-21T10:11:05Z</time>
      </trkpt>
      <trkpt lat="45.44986" lon="5.91759">
        <ele>1705</ele>
        <time>2017-08-21T10:16:06Z</time>
      </trkpt>
      <trkpt lat="45.44997" lon="5.91763">
        <ele>1704</ele>
        <time>2017-08-21T10:19:18Z</time>
      </trkpt>
      <trkpt lat="45.44998" lon="5.91749">
        <ele>1700</ele>
        <time>2017-08-21T10:19:26Z</time>
      </trkpt>
      <trkpt lat="45.44999" lon="5.91743">
        <ele>1698</ele>
        <time>2017-08-21T10:19:28Z</time>
      </trkpt>
      <trkpt lat="45.45006" lon="5.91733">
        <ele>1694</ele>
        <time>2017-08-21T10:19:32Z</time>
      </trkpt>
      <trkpt lat="45.44997" lon="5.91726">
        <ele>1689</ele>
        <time>2017-08-21T10:19:40Z</time>
      </trkpt>
      <trkpt lat="45.44993" lon="5.91722">
        <ele>1686</ele>
        <time>2017-08-21T10:19:45Z</time>
      </trkpt>
      <trkpt lat="45.4499" lon="5.91716">
        <ele>1683</ele>
        <time>2017-08-21T10:19:52Z</time>
      </trkpt>
      <trkpt lat="45.44975" lon="5.91708">
        <ele>1676</ele>
        <time>2017-08-21T10:20:03Z</time>
      </trkpt>
      <trkpt lat="45.44975" lon="5.917">
        <ele>1672</ele>
        <time>2017-08-21T10:20:08Z</time>
      </trkpt>
      <trkpt lat="45.44976" lon="5.9169">
        <ele>1664</ele>
        <time>2017-08-21T10:20:24Z</time>
      </trkpt>
      <trkpt lat="45.44975" lon="5.91683">
        <ele>1662</ele>
        <time>2017-08-21T10:20:29Z</time>
      </trkpt>
      <trkpt lat="45.44973" lon="5.91677">
        <ele>1658</ele>
        <time>2017-08-21T10:20:34Z</time>
      </trkpt>
      <trkpt lat="45.44978" lon="5.91674">
        <ele>1657</ele>
        <time>2017-08-21T10:20:37Z</time>
      </trkpt>
      <trkpt lat="45.44976" lon="5.91668">
        <ele>1654</ele>
        <time>2017-08-21T10:20:44Z</time>
      </trkpt>
      <trkpt lat="45.44972" lon="5.91663">
        <ele>1651</ele>
        <time>2017-08-21T10:20:49Z</time>
      </trkpt>
      <trkpt lat="45.44976" lon="5.91657">
        <ele>1650</ele>
        <time>2017-08-21T10:20:53Z</time>
      </trkpt>
      <trkpt lat="45.44972" lon="5.91652">
        <ele>1647</ele>
        <time>2017-08-21T10:21:00Z</time>
      </trkpt>
      <trkpt lat="45.44976" lon="5.91648">
        <ele>1645</ele>
        <time>2017-08-21T10:21:03Z</time>
      </trkpt>
      <trkpt lat="45.44986" lon="5.91644">
        <ele>1641</ele>
        <time>2017-08-21T10:21:09Z</time>
      </trkpt>
      <trkpt lat="45.4499" lon="5.91635">
        <ele>1638</ele>
        <time>2017-08-21T10:21:14Z</time>
      </trkpt>
      <trkpt lat="45.44985" lon="5.91631">
        <ele>1637</ele>
        <time>2017-08-21T10:21:16Z</time>
      </trkpt>
      <trkpt lat="45.44964" lon="5.91624">
        <ele>1630</ele>
        <time>2017-08-21T10:21:25Z</time>
      </trkpt>
      <trkpt lat="45.44964" lon="5.91616">
        <ele>1627</ele>
        <time>2017-08-21T10:21:29Z</time>
      </trkpt>
      <trkpt lat="45.44969" lon="5.9161">
        <ele>1625</ele>
        <time>2017-08-21T10:21:32Z</time>
      </trkpt>
      <trkpt lat="45.44983" lon="5.91587">
        <ele>1618</ele>
        <time>2017-08-21T10:21:42Z</time>
      </trkpt>
      <trkpt lat="45.44994" lon="5.91571">
        <ele>1612</ele>
        <time>2017-08-21T10:21:53Z</time>
      </trkpt>
      <trkpt lat="45.45001" lon="5.91553">
        <ele>1606</ele>
        <time>2017-08-21T10:22:05Z</time>
      </trkpt>
      <trkpt lat="45.45" lon="5.91547">
        <ele>1605</ele>
        <time>2017-08-21T10:22:08Z</time>
      </trkpt>
      <trkpt lat="45.45003" lon="5.91529">
        <ele>1598</ele>
        <time>2017-08-21T10:22:19Z</time>
      </trkpt>
      <trkpt lat="45.45003" lon="5.91521">
        <ele>1595</ele>
        <time>2017-08-21T10:22:24Z</time>
      </trkpt>
      <trkpt lat="45.45004" lon="5.91514">
        <ele>1593</ele>
        <time>2017-08-21T10:22:27Z</time>
      </trkpt>
      <trkpt lat="45.45013" lon="5.91506">
        <ele>1589</ele>
        <time>2017-08-21T10:22:34Z</time>
      </trkpt>
      <trkpt lat="45.45014" lon="5.91498">
        <ele>1587</ele>
        <time>2017-08-21T10:22:38Z</time>
      </trkpt>
      <trkpt lat="45.45019" lon="5.91485">
        <ele>1583</ele>
        <time>2017-08-21T10:22:44Z</time>
      </trkpt>
      <trkpt lat="45.45024" lon="5.91482">
        <ele>1580</ele>
        <time>2017-08-21T10:22:48Z</time>
      </trkpt>
      <trkpt lat="45.4503" lon="5.91464">
        <ele>1573</ele>
        <time>2017-08-21T10:23:01Z</time>
      </trkpt>
      <trkpt lat="45.45034" lon="5.91463">
        <ele>1572</ele>
        <time>2017-08-21T10:23:04Z</time>
      </trkpt>
      <trkpt lat="45.45038" lon="5.91457">
        <ele>1569</ele>
        <time>2017-08-21T10:23:09Z</time>
      </trkpt>
      <trkpt lat="45.45036" lon="5.91445">
        <ele>1564</ele>
        <time>2017-08-21T10:23:15Z</time>
      </trkpt>
      <trkpt lat="45.4504" lon="5.91444">
        <ele>1562</ele>
        <time>2017-08-21T10:23:20Z</time>
      </trkpt>
      <trkpt lat="45.45038" lon="5.91436">
        <ele>1560</ele>
        <time>2017-08-21T10:23:23Z</time>
      </trkpt>
      <trkpt lat="45.45043" lon="5.91429">
        <ele>1556</ele>
        <time>2017-08-21T10:23:29Z</time>
      </trkpt>
      <trkpt lat="45.45055" lon="5.91419">
        <ele>1550</ele>
        <time>2017-08-21T10:23:40Z</time>
      </trkpt>
      <trkpt lat="45.45062" lon="5.9141">
        <ele>1546</ele>
        <time>2017-08-21T10:23:49Z</time>
      </trkpt>
      <trkpt lat="45.45066" lon="5.91398">
        <ele>1541</ele>
        <time>2017-08-21T10:23:55Z</time>
      </trkpt>
      <trkpt lat="45.45075" lon="5.91388">
        <ele>1535</ele>
        <time>2017-08-21T10:24:07Z</time>
      </trkpt>
      <trkpt lat="45.45083" lon="5.9138">
        <ele>1529</ele>
        <time>2017-08-21T10:24:14Z</time>
      </trkpt>
      <trkpt lat="45.45088" lon="5.91368">
        <ele>1526</ele>
        <time>2017-08-21T10:24:20Z</time>
      </trkpt>
      <trkpt lat="45.451" lon="5.91343">
        <ele>1515</ele>
        <time>2017-08-21T10:24:38Z</time>
      </trkpt>
      <trkpt lat="45.45102" lon="5.9133">
        <ele>1508</ele>
        <time>2017-08-21T10:24:48Z</time>
      </trkpt>
      <trkpt lat="45.45111" lon="5.91324">
        <ele>1506</ele>
        <time>2017-08-21T10:24:52Z</time>
      </trkpt>
      <trkpt lat="45.45136" lon="5.91324">
        <ele>1494</ele>
        <time>2017-08-21T10:25:05Z</time>
      </trkpt>
      <trkpt lat="45.45146" lon="5.91318">
        <ele>1491</ele>
        <time>2017-08-21T10:25:09Z</time>
      </trkpt>
      <trkpt lat="45.45153" lon="5.9131">
        <ele>1486</ele>
        <time>2017-08-21T10:25:17Z</time>
      </trkpt>
      <trkpt lat="45.45188" lon="5.91302">
        <ele>1470</ele>
        <time>2017-08-21T10:25:46Z</time>
      </trkpt>
      <trkpt lat="45.45195" lon="5.91292">
        <ele>1467</ele>
        <time>2017-08-21T10:25:52Z</time>
      </trkpt>
      <trkpt lat="45.45203" lon="5.91284">
        <ele>1462</ele>
        <time>2017-08-21T10:26:00Z</time>
      </trkpt>
      <trkpt lat="45.45208" lon="5.91296">
        <ele>1459</ele>
        <time>2017-08-21T10:26:06Z</time>
      </trkpt>
      <trkpt lat="45.45218" lon="5.9129">
        <ele>1457</ele>
        <time>2017-08-21T10:26:12Z</time>
      </trkpt>
      <trkpt lat="45.45216" lon="5.91287">
        <ele>1448</ele>
        <time>2017-08-21T10:30:49Z</time>
      </trkpt>
      <trkpt lat="45.45221" lon="5.91287">
        <ele>1448</ele>
        <time>2017-08-21T10:31:03Z</time>
      </trkpt>
      <trkpt lat="45.4522" lon="5.91291">
        <ele>1447</ele>
        <time>2017-08-21T10:32:13Z</time>
      </trkpt>
      <trkpt lat="45.45216" lon="5.91274">
        <ele>1447</ele>
        <time>2017-08-21T10:37:16Z</time>
      </trkpt>
      <trkpt lat="45.45216" lon="5.91261">
        <ele>1445</ele>
        <time>2017-08-21T10:37:21Z</time>
      </trkpt>
      <trkpt lat="45.45216" lon="5.91245">
        <ele>1444</ele>
        <time>2017-08-21T10:37:25Z</time>
      </trkpt>
      <trkpt lat="45.45204" lon="5.91208">
        <ele>1437</ele>
        <time>2017-08-21T10:37:34Z</time>
      </trkpt>
      <trkpt lat="45.45196" lon="5.91196">
        <ele>1436</ele>
        <time>2017-08-21T10:37:38Z</time>
      </trkpt>
      <trkpt lat="45.45187" lon="5.91189">
        <ele>1438</ele>
        <time>2017-08-21T10:37:42Z</time>
      </trkpt>
      <trkpt lat="45.4518" lon="5.91178">
        <ele>1439</ele>
        <time>2017-08-21T10:37:45Z</time>
      </trkpt>
      <trkpt lat="45.45138" lon="5.91072">
        <ele>1407</ele>
        <time>2017-08-21T10:38:13Z</time>
      </trkpt>
      <trkpt lat="45.45134" lon="5.91059">
        <ele>1403</ele>
        <time>2017-08-21T10:38:19Z</time>
      </trkpt>
      <trkpt lat="45.45107" lon="5.90998">
        <ele>1389</ele>
        <time>2017-08-21T10:38:38Z</time>
      </trkpt>
      <trkpt lat="45.45101" lon="5.90987">
        <ele>1385</ele>
        <time>2017-08-21T10:38:43Z</time>
      </trkpt>
      <trkpt lat="45.45094" lon="5.90976">
        <ele>1381</ele>
        <time>2017-08-21T10:38:48Z</time>
      </trkpt>
      <trkpt lat="45.45088" lon="5.90964">
        <ele>1378</ele>
        <time>2017-08-21T10:38:52Z</time>
      </trkpt>
      <trkpt lat="45.45059" lon="5.9095">
        <ele>1369</ele>
        <time>2017-08-21T10:39:03Z</time>
      </trkpt>
      <trkpt lat="45.45028" lon="5.90945">
        <ele>1361</ele>
        <time>2017-08-21T10:39:15Z</time>
      </trkpt>
      <trkpt lat="45.45015" lon="5.90946">
        <ele>1356</ele>
        <time>2017-08-21T10:39:22Z</time>
      </trkpt>
      <trkpt lat="45.44991" lon="5.90954">
        <ele>1347</ele>
        <time>2017-08-21T10:39:36Z</time>
      </trkpt>
      <trkpt lat="45.44982" lon="5.90951">
        <ele>1344</ele>
        <time>2017-08-21T10:39:43Z</time>
      </trkpt>
      <trkpt lat="45.44963" lon="5.90935">
        <ele>1338</ele>
        <time>2017-08-21T10:39:53Z</time>
      </trkpt>
      <trkpt lat="45.44952" lon="5.90939">
        <ele>1335</ele>
        <time>2017-08-21T10:39:58Z</time>
      </trkpt>
      <trkpt lat="45.44941" lon="5.90943">
        <ele>1332</ele>
        <time>2017-08-21T10:40:02Z</time>
      </trkpt>
      <trkpt lat="45.44932" lon="5.90943">
        <ele>1330</ele>
        <time>2017-08-21T10:40:06Z</time>
      </trkpt>
      <trkpt lat="45.44923" lon="5.90935">
        <ele>1325</ele>
        <time>2017-08-21T10:40:12Z</time>
      </trkpt>
      <trkpt lat="45.44912" lon="5.90933">
        <ele>1322</ele>
        <time>2017-08-21T10:40:18Z</time>
      </trkpt>
      <trkpt lat="45.44859" lon="5.90892">
        <ele>1306</ele>
        <time>2017-08-21T10:40:43Z</time>
      </trkpt>
      <trkpt lat="45.44844" lon="5.90888">
        <ele>1302</ele>
        <time>2017-08-21T10:40:50Z</time>
      </trkpt>
      <trkpt lat="45.44833" lon="5.90878">
        <ele>1300</ele>
        <time>2017-08-21T10:40:54Z</time>
      </trkpt>
      <trkpt lat="45.44823" lon="5.90871">
        <ele>1299</ele>
        <time>2017-08-21T10:40:57Z</time>
      </trkpt>
      <trkpt lat="45.44761" lon="5.90861">
        <ele>1286</ele>
        <time>2017-08-21T10:41:16Z</time>
      </trkpt>
      <trkpt lat="45.44743" lon="5.90845">
        <ele>1281</ele>
        <time>2017-08-21T10:41:23Z</time>
      </trkpt>
      <trkpt lat="45.44732" lon="5.90798">
        <ele>1272</ele>
        <time>2017-08-21T10:41:38Z</time>
      </trkpt>
      <trkpt lat="45.44726" lon="5.90742">
        <ele>1265</ele>
        <time>2017-08-21T10:41:52Z</time>
      </trkpt>
      <trkpt lat="45.44725" lon="5.90696">
        <ele>1259</ele>
        <time>2017-08-21T10:42:02Z</time>
      </trkpt>
      <trkpt lat="45.44729" lon="5.90665">
        <ele>1255</ele>
        <time>2017-08-21T10:42:08Z</time>
      </trkpt>
      <trkpt lat="45.4473" lon="5.90654">
        <ele>1255</ele>
        <time>2017-08-21T10:42:10Z</time>
      </trkpt>
      <trkpt lat="45.44733" lon="5.90608">
        <ele>1261</ele>
        <time>2017-08-21T10:42:20Z</time>
      </trkpt>
      <trkpt lat="45.44734" lon="5.90599">
        <ele>1261</ele>
        <time>2017-08-21T10:42:22Z</time>
      </trkpt>
      <trkpt lat="45.44734" lon="5.90572">
        <ele>1260</ele>
        <time>2017-08-21T10:42:28Z</time>
      </trkpt>
      <trkpt lat="45.44736" lon="5.90558">
        <ele>1258</ele>
        <time>2017-08-21T10:42:32Z</time>
      </trkpt>
      <trkpt lat="45.44745" lon="5.90515">
        <ele>1252</ele>
        <time>2017-08-21T10:42:45Z</time>
      </trkpt>
      <trkpt lat="45.44762" lon="5.90488">
        <ele>1248</ele>
        <time>2017-08-21T10:42:53Z</time>
      </trkpt>
      <trkpt lat="45.44771" lon="5.90477">
        <ele>1247</ele>
        <time>2017-08-21T10:42:57Z</time>
      </trkpt>
      <trkpt lat="45.44773" lon="5.90469">
        <ele>1246</ele>
        <time>2017-08-21T10:42:59Z</time>
      </trkpt>
      <trkpt lat="45.44773" lon="5.90462">
        <ele>1245</ele>
        <time>2017-08-21T10:43:01Z</time>
      </trkpt>
      <trkpt lat="45.44751" lon="5.90487">
        <ele>1239</ele>
        <time>2017-08-21T10:43:13Z</time>
      </trkpt>
      <trkpt lat="45.44682" lon="5.905">
        <ele>1226</ele>
        <time>2017-08-21T10:43:39Z</time>
      </trkpt>
      <trkpt lat="45.44672" lon="5.90505">
        <ele>1223</ele>
        <time>2017-08-21T10:43:43Z</time>
      </trkpt>
      <trkpt lat="45.44667" lon="5.90509">
        <ele>1223</ele>
        <time>2017-08-21T10:43:45Z</time>
      </trkpt>
      <trkpt lat="45.44661" lon="5.90525">
        <ele>1221</ele>
        <time>2017-08-21T10:43:49Z</time>
      </trkpt>
      <trkpt lat="45.44659" lon="5.90532">
        <ele>1220</ele>
        <time>2017-08-21T10:43:51Z</time>
      </trkpt>
      <trkpt lat="45.44659" lon="5.9054">
        <ele>1218</ele>
        <time>2017-08-21T10:43:54Z</time>
      </trkpt>
      <trkpt lat="45.44647" lon="5.90601">
        <ele>1210</ele>
        <time>2017-08-21T10:44:12Z</time>
      </trkpt>
      <trkpt lat="45.44639" lon="5.90612">
        <ele>1208</ele>
        <time>2017-08-21T10:44:16Z</time>
      </trkpt>
      <trkpt lat="45.44622" lon="5.90632">
        <ele>1204</ele>
        <time>2017-08-21T10:44:24Z</time>
      </trkpt>
      <trkpt lat="45.44582" lon="5.90655">
        <ele>1196</ele>
        <time>2017-08-21T10:44:38Z</time>
      </trkpt>
      <trkpt lat="45.44577" lon="5.90654">
        <ele>1195</ele>
        <time>2017-08-21T10:44:40Z</time>
      </trkpt>
      <trkpt lat="45.44571" lon="5.9062">
        <ele>1191</ele>
        <time>2017-08-21T10:44:49Z</time>
      </trkpt>
      <trkpt lat="45.44568" lon="5.90615">
        <ele>1190</ele>
        <time>2017-08-21T10:44:52Z</time>
      </trkpt>
      <trkpt lat="45.44563" lon="5.90616">
        <ele>1188</ele>
        <time>2017-08-21T10:44:54Z</time>
      </trkpt>
      <trkpt lat="45.44558" lon="5.9062">
        <ele>1188</ele>
        <time>2017-08-21T10:44:56Z</time>
      </trkpt>
      <trkpt lat="45.44548" lon="5.90646">
        <ele>1185</ele>
        <time>2017-08-21T10:45:05Z</time>
      </trkpt>
      <trkpt lat="45.44546" lon="5.90654">
        <ele>1184</ele>
        <time>2017-08-21T10:45:08Z</time>
      </trkpt>
      <trkpt lat="45.44536" lon="5.90674">
        <ele>1181</ele>
        <time>2017-08-21T10:45:15Z</time>
      </trkpt>
      <trkpt lat="45.44511" lon="5.90696">
        <ele>1175</ele>
        <time>2017-08-21T10:45:27Z</time>
      </trkpt>
      <trkpt lat="45.44506" lon="5.90699">
        <ele>1174</ele>
        <time>2017-08-21T10:45:29Z</time>
      </trkpt>
      <trkpt lat="45.44489" lon="5.90713">
        <ele>1170</ele>
        <time>2017-08-21T10:45:37Z</time>
      </trkpt>
      <trkpt lat="45.44484" lon="5.90718">
        <ele>1169</ele>
        <time>2017-08-21T10:45:40Z</time>
      </trkpt>
      <trkpt lat="45.4448" lon="5.90727">
        <ele>1168</ele>
        <time>2017-08-21T10:45:43Z</time>
      </trkpt>
      <trkpt lat="45.44463" lon="5.90746">
        <ele>1165</ele>
        <time>2017-08-21T10:45:52Z</time>
      </trkpt>
      <trkpt lat="45.44422" lon="5.90774">
        <ele>1156</ele>
        <time>2017-08-21T10:46:16Z</time>
      </trkpt>
      <trkpt lat="45.44413" lon="5.90777">
        <ele>1154</ele>
        <time>2017-08-21T10:46:25Z</time>
      </trkpt>
      <trkpt lat="45.44412" lon="5.90764">
        <ele>1153</ele>
        <time>2017-08-21T10:46:29Z</time>
      </trkpt>
      <trkpt lat="45.44418" lon="5.90752">
        <ele>1152</ele>
        <time>2017-08-21T10:46:34Z</time>
      </trkpt>
      <trkpt lat="45.44421" lon="5.90739">
        <ele>1151</ele>
        <time>2017-08-21T10:46:39Z</time>
      </trkpt>
      <trkpt lat="45.44421" lon="5.90731">
        <ele>1150</ele>
        <time>2017-08-21T10:46:42Z</time>
      </trkpt>
      <trkpt lat="45.44419" lon="5.90724">
        <ele>1149</ele>
        <time>2017-08-21T10:46:45Z</time>
      </trkpt>
      <trkpt lat="45.44418" lon="5.90708">
        <ele>1146</ele>
        <time>2017-08-21T10:46:51Z</time>
      </trkpt>
      <trkpt lat="45.44416" lon="5.90702">
        <ele>1143</ele>
        <time>2017-08-21T10:46:54Z</time>
      </trkpt>
      <trkpt lat="45.44401" lon="5.90694">
        <ele>1140</ele>
        <time>2017-08-21T10:47:00Z</time>
      </trkpt>
      <trkpt lat="45.44396" lon="5.90692">
        <ele>1139</ele>
        <time>2017-08-21T10:47:02Z</time>
      </trkpt>
      <trkpt lat="45.44391" lon="5.9069">
        <ele>1139</ele>
        <time>2017-08-21T10:47:04Z</time>
      </trkpt>
      <trkpt lat="45.44385" lon="5.90686">
        <ele>1138</ele>
        <time>2017-08-21T10:47:07Z</time>
      </trkpt>
      <trkpt lat="45.44379" lon="5.90686">
        <ele>1138</ele>
        <time>2017-08-21T10:47:10Z</time>
      </trkpt>
      <trkpt lat="45.44374" lon="5.90685">
        <ele>1138</ele>
        <time>2017-08-21T10:47:12Z</time>
      </trkpt>
      <trkpt lat="45.44365" lon="5.90668">
        <ele>1137</ele>
        <time>2017-08-21T10:47:18Z</time>
      </trkpt>
      <trkpt lat="45.44288" lon="5.90615">
        <ele>1130</ele>
        <time>2017-08-21T10:47:50Z</time>
      </trkpt>
      <trkpt lat="45.44238" lon="5.90585">
        <ele>1126</ele>
        <time>2017-08-21T10:48:10Z</time>
      </trkpt>
      <trkpt lat="45.44235" lon="5.9058">
        <ele>1126</ele>
        <time>2017-08-21T10:48:12Z</time>
      </trkpt>
      <trkpt lat="45.4423" lon="5.90576">
        <ele>1125</ele>
        <time>2017-08-21T10:48:14Z</time>
      </trkpt>
      <trkpt lat="45.44225" lon="5.90574">
        <ele>1125</ele>
        <time>2017-08-21T10:48:16Z</time>
      </trkpt>
      <trkpt lat="45.44196" lon="5.90566">
        <ele>1126</ele>
        <time>2017-08-21T10:48:29Z</time>
      </trkpt>
      <trkpt lat="45.44187" lon="5.90563">
        <ele>1127</ele>
        <time>2017-08-21T10:48:33Z</time>
      </trkpt>
      <trkpt lat="45.44168" lon="5.90565">
        <ele>1129</ele>
        <time>2017-08-21T10:48:41Z</time>
      </trkpt>
      <trkpt lat="45.44164" lon="5.90565">
        <ele>1131</ele>
        <time>2017-08-21T10:49:43Z</time>
      </trkpt>
      <trkpt lat="45.44156" lon="5.90573">
        <ele>1131</ele>
        <time>2017-08-21T10:50:07Z</time>
      </trkpt>
      <trkpt lat="45.44144" lon="5.90567">
        <ele>1131</ele>
        <time>2017-08-21T10:50:24Z</time>
      </trkpt>
      <trkpt lat="45.44153" lon="5.90559">
        <ele>1131</ele>
        <time>2017-08-21T10:50:42Z</time>
      </trkpt>
      <trkpt lat="45.44159" lon="5.90562">
        <ele>1131</ele>
        <time>2017-08-21T10:51:43Z</time>
      </trkpt>
      <trkpt lat="45.44169" lon="5.90561">
        <ele>1131</ele>
        <time>2017-08-21T10:51:52Z</time>
      </trkpt>
      <trkpt lat="45.44203" lon="5.9056">
        <ele>1128</ele>
        <time>2017-08-21T10:52:19Z</time>
      </trkpt>
      <trkpt lat="45.44222" lon="5.90565">
        <ele>1126</ele>
        <time>2017-08-21T10:52:34Z</time>
      </trkpt>
      <trkpt lat="45.44233" lon="5.90567">
        <ele>1110</ele>
        <time>2017-08-21T10:52:42Z</time>
      </trkpt>
      <trkpt lat="45.44238" lon="5.90569">
        <ele>1110</ele>
        <time>2017-08-21T10:52:45Z</time>
      </trkpt>
      <trkpt lat="45.44243" lon="5.90571">
        <ele>1109</ele>
        <time>2017-08-21T10:52:49Z</time>
      </trkpt>
      <trkpt lat="45.44248" lon="5.90575">
        <ele>1109</ele>
        <time>2017-08-21T10:52:53Z</time>
      </trkpt>
      <trkpt lat="45.4425" lon="5.90581">
        <ele>1108</ele>
        <time>2017-08-21T10:52:57Z</time>
      </trkpt>
      <trkpt lat="45.44255" lon="5.90587">
        <ele>1108</ele>
        <time>2017-08-21T10:53:02Z</time>
      </trkpt>
    </trkseg>
  </trk>
</gpx>